Wetterdaten: Montag, 18.02.2019
Datum Zeit Temp. Aussen Temp. o. S. +5cm Feuchte Auss Luftdruck Regen Sonnenschein Regendauer Solar Windben Empfang
18.02.2019 00:00 7,3 C 6,7 C 5,6 C 71 % 1017,8 hPa 0,0 l/m 0 min 0 min 0 W/m 6,4 km/h (2 Bft) 100,00 %
18.02.2019 00:02 7,2 C 6,1 C 5,6 C 71 % 1017,8 hPa 0,0 l/m 0 min 0 min 0 W/m 9,7 km/h (2 Bft) 100,00 %
18.02.2019 00:04 7,2 C 6,1 C 5,6 C 71 % 1017,8 hPa 0,0 l/m 0 min 0 min 0 W/m 9,7 km/h (2 Bft) 100,00 %
18.02.2019 00:08 7,2 C 6,1 C 5,6 C 71 % 1017,8 hPa 0,0 l/m 0 min 0 min 0 W/m 9,7 km/h (2 Bft) 100,00 %
18.02.2019 00:10 7,2 C 6,1 C 5,0 C 71 % 1017,8 hPa 0,0 l/m 0 min 0 min 0 W/m 9,7 km/h (2 Bft) 97,87 %
18.02.2019 00:12 7,2 C 6,7 C 5,0 C 71 % 1017,8 hPa 0,0 l/m 0 min 0 min 0 W/m 9,7 km/h (2 Bft) 95,65 %
18.02.2019 00:14 7,1 C 6,1 C 5,6 C 71 % 1017,8 hPa 0,0 l/m 0 min 0 min 0 W/m 9,7 km/h (2 Bft) 95,74 %
18.02.2019 00:16 7,1 C 6,1 C 5,6 C 71 % 1017,8 hPa 0,0 l/m 0 min 0 min 0 W/m 6,4 km/h (2 Bft) 91,49 %
18.02.2019 00:18 7,1 C 6,1 C 5,0 C 71 % 1017,8 hPa 0,0 l/m 0 min 0 min 0 W/m 6,4 km/h (2 Bft) 93,62 %
18.02.2019 00:20 7,1 C 6,1 C 5,0 C 71 % 1017,8 hPa 0,0 l/m 0 min 0 min 0 W/m 9,7 km/h (2 Bft) 91,49 %
18.02.2019 00:22 7,1 C 6,1 C 5,0 C 71 % 1017,7 hPa 0,0 l/m 0 min 0 min 0 W/m 16,1 km/h (3 Bft) 91,49 %
18.02.2019 00:24 7,1 C 6,1 C 5,6 C 71 % 1017,8 hPa 0,0 l/m 0 min 0 min 0 W/m 9,7 km/h (2 Bft) 91,49 %
18.02.2019 00:26 7,0 C 6,1 C 5,6 C 71 % 1017,8 hPa 0,0 l/m 0 min 0 min 0 W/m 12,9 km/h (3 Bft) 95,65 %
18.02.2019 00:28 7,0 C 6,7 C 5,6 C 71 % 1017,8 hPa 0,0 l/m 0 min 0 min 0 W/m 12,9 km/h (3 Bft) 95,74 %
18.02.2019 00:30 7,0 C 6,7 C 5,6 C 71 % 1017,7 hPa 0,0 l/m 0 min 0 min 0 W/m 12,9 km/h (3 Bft) 95,74 %
18.02.2019 00:32 7,0 C 6,1 C 5,6 C 71 % 1017,7 hPa 0,0 l/m 0 min 0 min 0 W/m 12,9 km/h (3 Bft) 93,62 %
18.02.2019 00:34 7,0 C 6,1 C 5,6 C 71 % 1017,8 hPa 0,0 l/m 0 min 0 min 0 W/m 9,7 km/h (2 Bft) 93,62 %
18.02.2019 00:36 7,0 C 6,1 C 5,6 C 71 % 1017,8 hPa 0,0 l/m 0 min 0 min 0 W/m 16,1 km/h (3 Bft) 91,38 %
18.02.2019 00:38 7,0 C 6,1 C 5,6 C 71 % 1017,9 hPa 0,0 l/m 0 min 0 min 0 W/m 9,7 km/h (2 Bft) 94,29 %
18.02.2019 00:40 7,0 C 6,1 C 5,6 C 71 % 1017,8 hPa 0,0 l/m 0 min 0 min 0 W/m 9,7 km/h (2 Bft) 93,62 %
18.02.2019 00:42 7,0 C 6,1 C 5,6 C 71 % 1017,8 hPa 0,0 l/m 0 min 0 min 0 W/m 12,9 km/h (3 Bft) 91,49 %
18.02.2019 00:44 6,9 C 6,7 C 5,6 C 72 % 1017,8 hPa 0,0 l/m 0 min 0 min 0 W/m 19,3 km/h (3 Bft) 93,62 %
18.02.2019 00:46 7,0 C 6,1 C 5,6 C 71 % 1017,8 hPa 0,0 l/m 0 min 0 min 0 W/m 12,9 km/h (3 Bft) 93,62 %
18.02.2019 00:48 7,0 C 6,1 C 5,6 C 71 % 1017,8 hPa 0,0 l/m 0 min 0 min 0 W/m 12,9 km/h (3 Bft) 93,48 %
18.02.2019 00:50 6,9 C 6,1 C 5,6 C 72 % 1017,8 hPa 0,0 l/m 0 min 0 min 0 W/m 12,9 km/h (3 Bft) 91,49 %
18.02.2019 00:52 6,9 C 6,1 C 5,6 C 72 % 1017,9 hPa 0,0 l/m 0 min 0 min 0 W/m 9,7 km/h (2 Bft) 93,62 %
18.02.2019 00:54 6,9 C 6,1 C 5,6 C 72 % 1017,9 hPa 0,0 l/m 0 min 0 min 0 W/m 12,9 km/h (3 Bft) 93,62 %
18.02.2019 00:56 6,9 C 6,1 C 5,6 C 72 % 1017,8 hPa 0,0 l/m 0 min 0 min 0 W/m 9,7 km/h (2 Bft) 91,49 %
18.02.2019 00:58 6,9 C 6,1 C 5,0 C 72 % 1017,8 hPa 0,0 l/m 0 min 0 min 0 W/m 9,7 km/h (2 Bft) 91,49 %
18.02.2019 01:00 6,9 C 6,1 C 5,0 C 72 % 1017,8 hPa 0,0 l/m 0 min 0 min 0 W/m 12,9 km/h (3 Bft) 93,48 %
18.02.2019 01:02 6,9 C 6,1 C 5,0 C 72 % 1017,8 hPa 0,0 l/m 0 min 0 min 0 W/m 12,9 km/h (3 Bft) 95,74 %
18.02.2019 01:04 6,9 C 6,1 C 5,0 C 72 % 1017,8 hPa 0,0 l/m 0 min 0 min 0 W/m 9,7 km/h (2 Bft) 95,74 %
18.02.2019 01:06 6,9 C 6,1 C 5,0 C 72 % 1017,8 hPa 0,0 l/m 0 min 0 min 0 W/m 9,7 km/h (2 Bft) 94,92 %
18.02.2019 01:08 6,9 C 6,1 C 5,0 C 72 % 1017,8 hPa 0,0 l/m 0 min 0 min 0 W/m 12,9 km/h (3 Bft) 94,29 %
18.02.2019 01:10 6,9 C 6,1 C 5,0 C 73 % 1017,9 hPa 0,0 l/m 0 min 0 min 0 W/m 9,7 km/h (2 Bft) 97,87 %
18.02.2019 01:12 6,8 C 6,1 C 5,0 C 73 % 1017,8 hPa 0,0 l/m 0 min 0 min 0 W/m 9,7 km/h (2 Bft) 97,83 %
18.02.2019 01:14 6,8 C 6,1 C 5,0 C 73 % 1017,8 hPa 0,0 l/m 0 min 0 min 0 W/m 16,1 km/h (3 Bft) 95,74 %
18.02.2019 01:16 6,8 C 6,1 C 5,0 C 73 % 1017,8 hPa 0,0 l/m 0 min 0 min 0 W/m 16,1 km/h (3 Bft) 100,00 %
18.02.2019 01:18 6,8 C 6,1 C 5,0 C 73 % 1017,8 hPa 0,0 l/m 0 min 0 min 0 W/m 12,9 km/h (3 Bft) 100,00 %
18.02.2019 01:20 6,8 C 6,1 C 5,0 C 73 % 1017,9 hPa 0,0 l/m 0 min 0 min 0 W/m 12,9 km/h (3 Bft) 97,87 %
18.02.2019 01:22 6,8 C 6,1 C 5,0 C 73 % 1017,8 hPa 0,0 l/m 0 min 0 min 0 W/m 9,7 km/h (2 Bft) 97,83 %
18.02.2019 01:24 6,8 C 6,1 C 5,0 C 73 % 1017,9 hPa 0,0 l/m 0 min 0 min 0 W/m 12,9 km/h (3 Bft) 97,87 %
18.02.2019 01:26 6,8 C 6,1 C 5,0 C 73 % 1017,9 hPa 0,0 l/m 0 min 0 min 0 W/m 9,7 km/h (2 Bft) 100,00 %
18.02.2019 01:28 6,8 C 6,1 C 5,0 C 73 % 1017,9 hPa 0,0 l/m 0 min 0 min 0 W/m 9,7 km/h (2 Bft) 100,00 %
18.02.2019 01:30 6,8 C 6,1 C 5,0 C 73 % 1017,9 hPa 0,0 l/m 0 min 0 min 0 W/m 16,1 km/h (3 Bft) 97,87 %
18.02.2019 01:32 6,7 C 6,1 C 5,6 C 73 % 1017,9 hPa 0,0 l/m 0 min 0 min 0 W/m 16,1 km/h (3 Bft) 100,00 %
18.02.2019 01:34 6,7 C 6,1 C 5,6 C 73 % 1017,8 hPa 0,0 l/m 0 min 0 min 0 W/m 12,9 km/h (3 Bft) 97,83 %
18.02.2019 01:36 6,7 C 6,1 C 5,0 C 73 % 1017,9 hPa 0,0 l/m 0 min 0 min 0 W/m 16,1 km/h (3 Bft) 97,87 %
18.02.2019 01:38 6,7 C 6,1 C 5,0 C 73 % 1017,8 hPa 0,0 l/m 0 min 0 min 0 W/m 12,9 km/h (3 Bft) 97,87 %
18.02.2019 01:40 6,7 C 6,1 C 5,0 C 74 % 1017,9 hPa 0,0 l/m 0 min 0 min 0 W/m 16,1 km/h (3 Bft) 100,00 %
18.02.2019 01:42 6,7 C 6,1 C 5,0 C 74 % 1017,9 hPa 0,0 l/m 0 min 0 min 0 W/m 12,9 km/h (3 Bft) 97,87 %
18.02.2019 01:44 6,7 C 6,1 C 5,0 C 74 % 1017,9 hPa 0,0 l/m 0 min 0 min 0 W/m 12,9 km/h (3 Bft) 100,00 %
18.02.2019 01:46 6,7 C 6,1 C 5,0 C 74 % 1017,8 hPa 0,0 l/m 0 min 0 min 0 W/m 16,1 km/h (3 Bft) 100,00 %
18.02.2019 01:48 6,7 C 6,1 C 5,0 C 74 % 1017,9 hPa 0,0 l/m 0 min 0 min 0 W/m 12,9 km/h (3 Bft) 100,00 %
18.02.2019 01:50 6,6 C 5,6 C 5,0 C 74 % 1017,9 hPa 0,0 l/m 0 min 0 min 0 W/m 16,1 km/h (3 Bft) 100,00 %
18.02.2019 01:52 6,6 C 5,6 C 5,0 C 74 % 1017,9 hPa 0,0 l/m 0 min 0 min 0 W/m 16,1 km/h (3 Bft) 97,87 %
18.02.2019 01:54 6,6 C 5,6 C 5,0 C 74 % 1017,9 hPa 0,0 l/m 0 min 0 min 0 W/m 16,1 km/h (3 Bft) 100,00 %
18.02.2019 01:56 6,6 C 5,6 C 5,0 C 74 % 1017,9 hPa 0,0 l/m 0 min 0 min 0 W/m 12,9 km/h (3 Bft) 97,87 %
18.02.2019 01:58 6,6 C 5,6 C 5,0 C 74 % 1017,8 hPa 0,0 l/m 0 min 0 min 0 W/m 16,1 km/h (3 Bft) 100,00 %
18.02.2019 02:00 6,6 C 5,6 C 5,0 C 74 % 1017,8 hPa 0,0 l/m 0 min 0 min 0 W/m 12,9 km/h (3 Bft) 100,00 %
18.02.2019 02:02 6,5 C 5,6 C 5,0 C 74 % 1017,8 hPa 0,0 l/m 0 min 0 min 0 W/m 19,3 km/h (3 Bft) 100,00 %
18.02.2019 02:04 6,5 C 5,6 C 5,0 C 74 % 1017,9 hPa 0,0 l/m 0 min 0 min 0 W/m 12,9 km/h (3 Bft) 100,00 %
18.02.2019 02:06 6,4 C 5,6 C 5,0 C 75 % 1017,9 hPa 0,0 l/m 0 min 0 min 0 W/m 16,1 km/h (3 Bft) 100,00 %
18.02.2019 02:08 6,4 C 5,6 C 5,0 C 75 % 1017,9 hPa 0,0 l/m 0 min 0 min 0 W/m 12,9 km/h (3 Bft) 100,00 %
18.02.2019 02:10 6,4 C 5,6 C 5,0 C 75 % 1017,9 hPa 0,0 l/m 0 min 0 min 0 W/m 16,1 km/h (3 Bft) 97,83 %
18.02.2019 02:12 6,4 C 5,6 C 5,0 C 75 % 1017,8 hPa 0,0 l/m 0 min 0 min 0 W/m 16,1 km/h (3 Bft) 100,00 %
18.02.2019 02:14 6,4 C 5,6 C 5,0 C 75 % 1017,9 hPa 0,0 l/m 0 min 0 min 0 W/m 12,9 km/h (3 Bft) 95,74 %
18.02.2019 02:16 6,4 C 5,6 C 5,0 C 75 % 1017,8 hPa 0,0 l/m 0 min 0 min 0 W/m 22,5 km/h (4 Bft) 97,87 %
18.02.2019 02:18 6,4 C 5,6 C 5,0 C 75 % 1017,8 hPa 0,0 l/m 0 min 0 min 0 W/m 12,9 km/h (3 Bft) 100,00 %
18.02.2019 02:20 6,4 C 5,6 C 5,0 C 75 % 1017,8 hPa 0,0 l/m 0 min 0 min 0 W/m 12,9 km/h (3 Bft) 97,87 %
18.02.2019 02:22 6,4 C 5,6 C 5,0 C 75 % 1017,8 hPa 0,0 l/m 0 min 0 min 0 W/m 12,9 km/h (3 Bft) 97,83 %
18.02.2019 02:24 6,4 C 5,6 C 5,0 C 75 % 1017,9 hPa 0,0 l/m 0 min 0 min 0 W/m 19,3 km/h (3 Bft) 95,74 %
18.02.2019 02:26 6,4 C 5,6 C 5,0 C 75 % 1017,9 hPa 0,0 l/m 0 min 0 min 0 W/m 9,7 km/h (2 Bft) 100,00 %
18.02.2019 02:28 6,3 C 5,6 C 4,4 C 75 % 1017,8 hPa 0,0 l/m 0 min 0 min 0 W/m 9,7 km/h (2 Bft) 100,00 %
18.02.2019 02:30 6,3 C 5,6 C 4,4 C 75 % 1017,8 hPa 0,0 l/m 0 min 0 min 0 W/m 6,4 km/h (2 Bft) 100,00 %
18.02.2019 02:32 6,3 C 5,6 C 4,4 C 75 % 1017,8 hPa 0,0 l/m 0 min 0 min 0 W/m 12,9 km/h (3 Bft) 100,00 %
18.02.2019 02:34 6,3 C 5,6 C 4,4 C 75 % 1017,8 hPa 0,0 l/m 0 min 0 min 0 W/m 16,1 km/h (3 Bft) 97,83 %
18.02.2019 02:36 6,3 C 5,6 C 4,4 C 76 % 1017,8 hPa 0,0 l/m 0 min 0 min 0 W/m 16,1 km/h (3 Bft) 100,00 %
18.02.2019 02:38 6,3 C 5,6 C 4,4 C 76 % 1017,8 hPa 0,0 l/m 0 min 0 min 0 W/m 16,1 km/h (3 Bft) 97,14 %
18.02.2019 02:40 6,2 C 5,6 C 4,4 C 76 % 1017,8 hPa 0,0 l/m 0 min 0 min 0 W/m 12,9 km/h (3 Bft) 95,74 %
18.02.2019 02:42 6,2 C 5,6 C 4,4 C 76 % 1017,9 hPa 0,0 l/m 0 min 0 min 0 W/m 12,9 km/h (3 Bft) 97,87 %
18.02.2019 02:44 6,2 C 5,6 C 4,4 C 76 % 1017,8 hPa 0,0 l/m 0 min 0 min 0 W/m 9,7 km/h (2 Bft) 100,00 %
18.02.2019 02:46 6,2 C 5,6 C 4,4 C 76 % 1017,8 hPa 0,0 l/m 0 min 0 min 0 W/m 9,7 km/h (2 Bft) 100,00 %
18.02.2019 02:48 6,2 C 5,6 C 4,4 C 76 % 1017,8 hPa 0,0 l/m 0 min 0 min 0 W/m 16,1 km/h (3 Bft) 100,00 %
18.02.2019 02:50 6,2 C 5,6 C 4,4 C 76 % 1017,8 hPa 0,0 l/m 0 min 0 min 0 W/m 12,9 km/h (3 Bft) 97,87 %
18.02.2019 02:52 6,1 C 5,6 C 4,4 C 76 % 1017,8 hPa 0,0 l/m 0 min 0 min 0 W/m 12,9 km/h (3 Bft) 95,74 %
18.02.2019 02:54 6,1 C 5,6 C 4,4 C 77 % 1017,8 hPa 0,0 l/m 0 min 0 min 0 W/m 9,7 km/h (2 Bft) 97,87 %
18.02.2019 02:56 6,1 C 5,6 C 4,4 C 77 % 1017,7 hPa 0,0 l/m 0 min 0 min 0 W/m 16,1 km/h (3 Bft) 97,83 %
18.02.2019 02:58 6,1 C 5,6 C 4,4 C 77 % 1017,7 hPa 0,0 l/m 0 min 0 min 0 W/m 16,1 km/h (3 Bft) 97,87 %
18.02.2019 03:00 6,1 C 5,6 C 4,4 C 77 % 1017,7 hPa 0,0 l/m 0 min 0 min 0 W/m 12,9 km/h (3 Bft) 97,87 %
18.02.2019 03:02 6,1 C 5,6 C 4,4 C 77 % 1017,7 hPa 0,0 l/m 0 min 0 min 0 W/m 12,9 km/h (3 Bft) 97,87 %
18.02.2019 03:04 6,0 C 5,6 C 4,4 C 77 % 1017,7 hPa 0,0 l/m 0 min 0 min 0 W/m 25,7 km/h (4 Bft) 95,74 %
18.02.2019 03:06 6,0 C 5,6 C 4,4 C 77 % 1017,7 hPa 0,0 l/m 0 min 0 min 0 W/m 22,5 km/h (4 Bft) 96,55 %
18.02.2019 03:08 6,0 C 5,6 C 4,4 C 77 % 1017,7 hPa 0,0 l/m 0 min 0 min 0 W/m 12,9 km/h (3 Bft) 94,29 %
18.02.2019 03:10 6,0 C 5,0 C 4,4 C 77 % 1017,7 hPa 0,0 l/m 0 min 0 min 0 W/m 9,7 km/h (2 Bft) 93,62 %
18.02.2019 03:12 6,0 C 5,0 C 4,4 C 77 % 1017,6 hPa 0,0 l/m 0 min 0 min 0 W/m 9,7 km/h (2 Bft) 93,62 %
18.02.2019 03:14 5,9 C 5,0 C 4,4 C 77 % 1017,7 hPa 0,0 l/m 0 min 0 min 0 W/m 12,9 km/h (3 Bft) 93,62 %
18.02.2019 03:16 5,9 C 5,0 C 4,4 C 77 % 1017,6 hPa 0,0 l/m 0 min 0 min 0 W/m 12,9 km/h (3 Bft) 95,74 %
18.02.2019 03:18 5,9 C 5,0 C 4,4 C 77 % 1017,6 hPa 0,0 l/m 0 min 0 min 0 W/m 16,1 km/h (3 Bft) 95,65 %
18.02.2019 03:20 5,9 C 5,0 C 4,4 C 78 % 1017,6 hPa 0,0 l/m 0 min 0 min 0 W/m 16,1 km/h (3 Bft) 95,74 %
18.02.2019 03:22 5,8 C 5,0 C 3,9 C 78 % 1017,6 hPa 0,0 l/m 0 min 0 min 0 W/m 16,1 km/h (3 Bft) 95,74 %
18.02.2019 03:24 5,8 C 5,0 C 4,4 C 78 % 1017,6 hPa 0,0 l/m 0 min 0 min 0 W/m 12,9 km/h (3 Bft) 93,62 %
18.02.2019 03:26 5,8 C 5,0 C 3,9 C 78 % 1017,7 hPa 0,0 l/m 0 min 0 min 0 W/m 9,7 km/h (2 Bft) 95,74 %
18.02.2019 03:28 5,8 C 5,0 C 3,9 C 78 % 1017,7 hPa 0,0 l/m 0 min 0 min 0 W/m 12,9 km/h (3 Bft) 95,74 %
18.02.2019 03:30 5,8 C 5,0 C 3,9 C 78 % 1017,6 hPa 0,0 l/m 0 min 0 min 0 W/m 12,9 km/h (3 Bft) 95,65 %
18.02.2019 03:32 5,7 C 5,0 C 3,9 C 78 % 1017,6 hPa 0,0 l/m 0 min 0 min 0 W/m 12,9 km/h (3 Bft) 91,49 %
18.02.2019 03:34 5,7 C 5,0 C 3,9 C 78 % 1017,6 hPa 0,0 l/m 0 min 0 min 0 W/m 9,7 km/h (2 Bft) 97,87 %
18.02.2019 03:36 5,7 C 5,0 C 3,9 C 78 % 1017,6 hPa 0,0 l/m 0 min 0 min 0 W/m 9,7 km/h (2 Bft) 98,31 %
18.02.2019 03:38 5,7 C 4,4 C 3,9 C 79 % 1017,5 hPa 0,0 l/m 0 min 0 min 0 W/m 19,3 km/h (3 Bft) 97,22 %
18.02.2019 03:40 5,6 C 4,4 C 3,9 C 79 % 1017,5 hPa 0,0 l/m 0 min 0 min 0 W/m 16,1 km/h (3 Bft) 97,87 %
18.02.2019 03:42 5,6 C 4,4 C 3,9 C 79 % 1017,5 hPa 0,0 l/m 0 min 0 min 0 W/m 19,3 km/h (3 Bft) 97,87 %
18.02.2019 03:44 5,6 C 4,4 C 3,9 C 79 % 1017,5 hPa 0,0 l/m 0 min 0 min 0 W/m 12,9 km/h (3 Bft) 97,83 %
18.02.2019 03:46 5,6 C 5,0 C 3,9 C 79 % 1017,5 hPa 0,0 l/m 0 min 0 min 0 W/m 16,1 km/h (3 Bft) 95,74 %
18.02.2019 03:48 5,5 C 5,0 C 3,9 C 79 % 1017,5 hPa 0,0 l/m 0 min 0 min 0 W/m 12,9 km/h (3 Bft) 95,74 %
18.02.2019 03:50 5,5 C 5,0 C 3,9 C 79 % 1017,5 hPa 0,0 l/m 0 min 0 min 0 W/m 19,3 km/h (3 Bft) 97,87 %
18.02.2019 03:52 5,5 C 5,0 C 3,9 C 79 % 1017,4 hPa 0,0 l/m 0 min 0 min 0 W/m 9,7 km/h (2 Bft) 95,74 %
18.02.2019 03:54 5,4 C 4,4 C 3,9 C 79 % 1017,4 hPa 0,0 l/m 0 min 0 min 0 W/m 9,7 km/h (2 Bft) 97,83 %
18.02.2019 03:56 5,4 C 4,4 C 3,9 C 79 % 1017,4 hPa 0,0 l/m 0 min 0 min 0 W/m 16,1 km/h (3 Bft) 97,87 %
18.02.2019 03:58 5,4 C 4,4 C 3,9 C 79 % 1017,4 hPa 0,0 l/m 0 min 0 min 0 W/m 16,1 km/h (3 Bft) 97,87 %
18.02.2019 04:00 5,4 C 4,4 C 3,9 C 79 % 1017,3 hPa 0,0 l/m 0 min 0 min 0 W/m 12,9 km/h (3 Bft) 100,00 %
18.02.2019 04:02 5,4 C 4,4 C 3,9 C 79 % 1017,3 hPa 0,0 l/m 0 min 0 min 0 W/m 12,9 km/h (3 Bft) 95,83 %
18.02.2019 04:04 5,4 C 4,4 C 3,9 C 79 % 1017,3 hPa 0,0 l/m 0 min 0 min 0 W/m 9,7 km/h (2 Bft) 97,87 %
18.02.2019 04:06 5,3 C 4,4 C 3,9 C 79 % 1017,3 hPa 0,0 l/m 0 min 0 min 0 W/m 16,1 km/h (3 Bft) 97,83 %
18.02.2019 04:08 5,3 C 4,4 C 3,9 C 79 % 1017,2 hPa 0,0 l/m 0 min 0 min 0 W/m 16,1 km/h (3 Bft) 95,74 %
18.02.2019 04:13 5,3 C 4,4 C 3,9 C 79 % 1017,2 hPa 0,0 l/m 0 min 0 min 0 W/m 22,5 km/h (4 Bft) 94,92 %
18.02.2019 04:14 5,3 C 4,4 C 3,9 C 79 % 1017,2 hPa 0,0 l/m 0 min 0 min 0 W/m 12,9 km/h (3 Bft) 91,67 %
18.02.2019 04:19 5,2 C 4,4 C 3,9 C 79 % 1017,2 hPa 0,0 l/m 0 min 0 min 0 W/m 12,9 km/h (3 Bft) 96,15 %
18.02.2019 04:20 5,2 C 4,4 C 3,9 C 79 % 1017,2 hPa 0,0 l/m 0 min 0 min 0 W/m 9,7 km/h (2 Bft) 95,65 %
18.02.2019 04:22 5,2 C 4,4 C 3,3 C 79 % 1017,2 hPa 0,0 l/m 0 min 0 min 0 W/m 9,7 km/h (2 Bft) 97,87 %
18.02.2019 04:24 5,2 C 4,4 C 3,3 C 79 % 1017,2 hPa 0,0 l/m 0 min 0 min 0 W/m 12,9 km/h (3 Bft) 97,87 %
18.02.2019 04:26 5,2 C 4,4 C 3,3 C 79 % 1017,2 hPa 0,0 l/m 0 min 0 min 0 W/m 9,7 km/h (2 Bft) 97,87 %
18.02.2019 04:28 5,2 C 4,4 C 3,3 C 80 % 1017,2 hPa 0,0 l/m 0 min 0 min 0 W/m 6,4 km/h (2 Bft) 95,65 %
18.02.2019 04:30 5,1 C 4,4 C 3,3 C 80 % 1017,1 hPa 0,0 l/m 0 min 0 min 0 W/m 9,7 km/h (2 Bft) 95,74 %
18.02.2019 04:32 5,1 C 3,9 C 3,3 C 80 % 1017,2 hPa 0,0 l/m 0 min 0 min 0 W/m 12,9 km/h (3 Bft) 97,87 %
18.02.2019 04:34 5,1 C 3,9 C 3,3 C 80 % 1017,2 hPa 0,0 l/m 0 min 0 min 0 W/m 16,1 km/h (3 Bft) 97,87 %
18.02.2019 04:36 5,1 C 4,4 C 3,3 C 80 % 1017,3 hPa 0,0 l/m 0 min 0 min 0 W/m 12,9 km/h (3 Bft) 97,87 %
18.02.2019 04:38 5,0 C 4,4 C 3,3 C 80 % 1017,2 hPa 0,0 l/m 0 min 0 min 0 W/m 12,9 km/h (3 Bft) 97,92 %
18.02.2019 04:40 4,9 C 4,4 C 3,3 C 80 % 1017,2 hPa 0,0 l/m 0 min 0 min 0 W/m 12,9 km/h (3 Bft) 97,83 %
18.02.2019 04:42 4,9 C 3,9 C 3,3 C 80 % 1017,4 hPa 0,0 l/m 0 min 0 min 0 W/m 6,4 km/h (2 Bft) 97,87 %
18.02.2019 04:44 4,9 C 3,9 C 3,3 C 80 % 1017,3 hPa 0,0 l/m 0 min 0 min 0 W/m 9,7 km/h (2 Bft) 97,87 %
18.02.2019 04:46 4,9 C 3,9 C 3,3 C 80 % 1017,3 hPa 0,0 l/m 0 min 0 min 0 W/m 9,7 km/h (2 Bft) 95,74 %
18.02.2019 04:48 4,9 C 3,9 C 3,3 C 80 % 1017,2 hPa 0,0 l/m 0 min 0 min 0 W/m 12,9 km/h (3 Bft) 97,87 %
18.02.2019 04:50 4,9 C 3,9 C 3,3 C 80 % 1017,2 hPa 0,0 l/m 0 min 0 min 0 W/m 9,7 km/h (2 Bft) 97,87 %
18.02.2019 04:52 4,8 C 3,9 C 3,3 C 81 % 1017,2 hPa 0,0 l/m 0 min 0 min 0 W/m 16,1 km/h (3 Bft) 97,83 %
18.02.2019 04:54 4,8 C 3,9 C 3,3 C 81 % 1017,2 hPa 0,0 l/m 0 min 0 min 0 W/m 9,7 km/h (2 Bft) 97,87 %
18.02.2019 04:56 4,8 C 3,9 C 3,3 C 81 % 1017,2 hPa 0,0 l/m 0 min 0 min 0 W/m 9,7 km/h (2 Bft) 95,74 %
18.02.2019 04:58 4,8 C 3,9 C 2,8 C 81 % 1017,3 hPa 0,0 l/m 0 min 0 min 0 W/m 6,4 km/h (2 Bft) 95,74 %
18.02.2019 05:00 4,8 C 3,9 C 3,3 C 81 % 1017,2 hPa 0,0 l/m 0 min 0 min 0 W/m 12,9 km/h (3 Bft) 95,74 %
18.02.2019 05:02 4,7 C 3,9 C 3,3 C 81 % 1017,1 hPa 0,0 l/m 0 min 0 min 0 W/m 9,7 km/h (2 Bft) 97,87 %
18.02.2019 05:04 4,7 C 3,9 C 3,3 C 81 % 1017,2 hPa 0,0 l/m 0 min 0 min 0 W/m 9,7 km/h (2 Bft) 95,65 %
18.02.2019 05:05 4,7 C 3,9 C 3,3 C 81 % 1017,2 hPa 0,0 l/m 0 min 0 min 0 W/m 9,7 km/h (2 Bft) 99,12 %
18.02.2019 05:10 4,6 C 3,9 C 2,8 C 81 % 1017,1 hPa 0,0 l/m 0 min 0 min 0 W/m 12,9 km/h (3 Bft) 97,37 %
18.02.2019 05:12 4,6 C 3,9 C 2,8 C 81 % 1017,2 hPa 0,0 l/m 0 min 0 min 0 W/m 12,9 km/h (3 Bft) 100,00 %
18.02.2019 05:14 4,6 C 3,9 C 2,8 C 81 % 1017,1 hPa 0,0 l/m 0 min 0 min 0 W/m 16,1 km/h (3 Bft) 97,87 %
18.02.2019 05:16 4,6 C 3,9 C 2,8 C 81 % 1017,1 hPa 0,0 l/m 0 min 0 min 0 W/m 12,9 km/h (3 Bft) 93,33 %
18.02.2019 05:18 4,5 C 3,9 C 2,8 C 82 % 1017,1 hPa 0,0 l/m 0 min 0 min 0 W/m 9,7 km/h (2 Bft) 95,83 %
18.02.2019 05:20 4,5 C 3,9 C 2,8 C 81 % 1017,1 hPa 0,0 l/m 0 min 0 min 0 W/m 12,9 km/h (3 Bft) 95,74 %
18.02.2019 05:22 4,5 C 3,9 C 2,8 C 82 % 1017,1 hPa 0,0 l/m 0 min 0 min 0 W/m 16,1 km/h (3 Bft) 86,49 %
18.02.2019 05:24 4,5 C 3,9 C 3,3 C 82 % 1017,1 hPa 0,0 l/m 0 min 0 min 0 W/m 12,9 km/h (3 Bft) 97,92 %
18.02.2019 05:26 4,5 C 3,9 C 2,8 C 82 % 1017,1 hPa 0,0 l/m 0 min 0 min 0 W/m 9,7 km/h (2 Bft) 100,00 %
18.02.2019 05:28 4,4 C 3,9 C 2,8 C 82 % 1017,1 hPa 0,0 l/m 0 min 0 min 0 W/m 9,7 km/h (2 Bft) 97,87 %
18.02.2019 05:30 4,4 C 3,9 C 2,8 C 82 % 1017,1 hPa 0,0 l/m 0 min 0 min 0 W/m 16,1 km/h (3 Bft) 97,56 %
18.02.2019 05:32 4,4 C 3,9 C 2,8 C 82 % 1017,1 hPa 0,0 l/m 0 min 0 min 0 W/m 9,7 km/h (2 Bft) 96,00 %
18.02.2019 05:34 4,4 C 3,9 C 2,8 C 82 % 1017,1 hPa 0,0 l/m 0 min 0 min 0 W/m 12,9 km/h (3 Bft) 97,96 %
18.02.2019 05:36 4,4 C 3,9 C 2,8 C 82 % 1017,1 hPa 0,0 l/m 0 min 0 min 0 W/m 12,9 km/h (3 Bft) 97,96 %
18.02.2019 05:38 4,4 C 3,9 C 2,8 C 82 % 1017,1 hPa 0,0 l/m 0 min 0 min 0 W/m 16,1 km/h (3 Bft) 97,92 %
18.02.2019 05:40 4,4 C 3,9 C 2,8 C 82 % 1017,1 hPa 0,0 l/m 0 min 0 min 0 W/m 16,1 km/h (3 Bft) 95,74 %
18.02.2019 05:42 4,4 C 3,9 C 2,8 C 82 % 1017,1 hPa 0,0 l/m 0 min 0 min 0 W/m 12,9 km/h (3 Bft) 98,00 %
18.02.2019 05:44 4,4 C 3,9 C 3,3 C 82 % 1017,1 hPa 0,0 l/m 0 min 0 min 0 W/m 16,1 km/h (3 Bft) 97,14 %
18.02.2019 05:46 4,3 C 3,9 C 3,3 C 82 % 1017,1 hPa 0,0 l/m 0 min 0 min 0 W/m 9,7 km/h (2 Bft) 96,72 %
18.02.2019 05:48 4,3 C 3,9 C 2,8 C 82 % 1017,1 hPa 0,0 l/m 0 min 0 min 0 W/m 9,7 km/h (2 Bft) 97,87 %
18.02.2019 05:50 4,3 C 3,9 C 2,8 C 82 % 1017,1 hPa 0,0 l/m 0 min 0 min 0 W/m 9,7 km/h (2 Bft) 97,56 %
18.02.2019 05:52 4,3 C 3,3 C 2,8 C 82 % 1017,1 hPa 0,0 l/m 0 min 0 min 0 W/m 9,7 km/h (2 Bft) 94,00 %
18.02.2019 05:54 4,3 C 3,9 C 2,8 C 82 % 1017,2 hPa 0,0 l/m 0 min 0 min 0 W/m 9,7 km/h (2 Bft) 100,00 %
18.02.2019 05:56 4,3 C 3,3 C 2,8 C 82 % 1017,2 hPa 0,0 l/m 0 min 0 min 0 W/m 9,7 km/h (2 Bft) 100,00 %
18.02.2019 05:58 4,3 C 3,3 C 2,8 C 82 % 1017,3 hPa 0,0 l/m 0 min 0 min 0 W/m 12,9 km/h (3 Bft) 100,00 %
18.02.2019 06:00 4,3 C 3,3 C 2,8 C 82 % 1017,2 hPa 0,0 l/m 0 min 0 min 0 W/m 9,7 km/h (2 Bft) 100,00 %
18.02.2019 06:02 4,2 C 3,3 C 2,8 C 83 % 1017,3 hPa 0,0 l/m 0 min 0 min 0 W/m 9,7 km/h (2 Bft) 100,00 %
18.02.2019 06:04 4,2 C 3,3 C 2,8 C 83 % 1017,3 hPa 0,0 l/m 0 min 0 min 0 W/m 9,7 km/h (2 Bft) 95,74 %
18.02.2019 06:08 4,2 C 3,3 C 2,8 C 83 % 1017,3 hPa 0,0 l/m 0 min 0 min 0 W/m 9,7 km/h (2 Bft) 97,67 %
18.02.2019 06:10 4,2 C 3,3 C 2,8 C 83 % 1017,3 hPa 0,0 l/m 0 min 0 min 0 W/m 6,4 km/h (2 Bft) 95,24 %
18.02.2019 06:12 4,2 C 3,3 C 2,2 C 83 % 1017,3 hPa 0,0 l/m 0 min 0 min 0 W/m 6,4 km/h (2 Bft) 97,96 %
18.02.2019 06:14 4,2 C 3,3 C 2,2 C 83 % 1017,3 hPa 0,0 l/m 0 min 0 min 0 W/m 9,7 km/h (2 Bft) 97,92 %
18.02.2019 06:16 4,1 C 3,3 C 2,2 C 83 % 1017,2 hPa 0,0 l/m 0 min 0 min 0 W/m 12,9 km/h (3 Bft) 97,96 %
18.02.2019 06:18 4,1 C 3,3 C 2,2 C 83 % 1017,2 hPa 0,0 l/m 0 min 0 min 0 W/m 9,7 km/h (2 Bft) 97,96 %
18.02.2019 06:20 4,1 C 3,3 C 2,2 C 83 % 1017,1 hPa 0,0 l/m 0 min 0 min 0 W/m 9,7 km/h (2 Bft) 95,74 %
18.02.2019 06:22 4,1 C 3,3 C 2,2 C 83 % 1017,1 hPa 0,0 l/m 0 min 0 min 0 W/m 9,7 km/h (2 Bft) 97,83 %
18.02.2019 06:24 4,1 C 3,3 C 2,2 C 83 % 1017,2 hPa 0,0 l/m 0 min 0 min 0 W/m 12,9 km/h (3 Bft) 97,62 %
18.02.2019 06:26 4,0 C 3,3 C 2,2 C 83 % 1017,2 hPa 0,0 l/m 0 min 0 min 0 W/m 9,7 km/h (2 Bft) 95,83 %
18.02.2019 06:28 4,0 C 3,3 C 2,2 C 83 % 1017,2 hPa 0,0 l/m 0 min 0 min 0 W/m 9,7 km/h (2 Bft) 97,96 %
18.02.2019 06:30 4,0 C 3,3 C 2,2 C 83 % 1017,2 hPa 0,0 l/m 0 min 0 min 0 W/m 6,4 km/h (2 Bft) 97,96 %
18.02.2019 06:32 4,0 C 3,3 C 2,2 C 83 % 1017,2 hPa 0,0 l/m 0 min 0 min 0 W/m 9,7 km/h (2 Bft) 97,83 %
18.02.2019 06:34 3,9 C 3,3 C 2,2 C 83 % 1017,1 hPa 0,0 l/m 0 min 0 min 0 W/m 9,7 km/h (2 Bft) 97,87 %
18.02.2019 06:36 3,9 C 3,3 C 2,2 C 83 % 1017,1 hPa 0,0 l/m 0 min 0 min 0 W/m 9,7 km/h (2 Bft) 90,70 %
18.02.2019 06:38 3,9 C 3,3 C 2,2 C 83 % 1017,1 hPa 0,0 l/m 0 min 0 min 0 W/m 6,4 km/h (2 Bft) 95,83 %
18.02.2019 06:40 3,9 C 3,3 C 2,2 C 83 % 1017,1 hPa 0,0 l/m 0 min 0 min 0 W/m 12,9 km/h (3 Bft) 97,96 %
18.02.2019 06:42 3,9 C 3,3 C 2,2 C 83 % 1017,0 hPa 0,0 l/m 0 min 0 min 0 W/m 12,9 km/h (3 Bft) 95,83 %
18.02.2019 06:44 3,9 C 3,3 C 2,2 C 83 % 1017,0 hPa 0,0 l/m 0 min 0 min 0 W/m 12,9 km/h (3 Bft) 97,83 %
18.02.2019 06:46 3,8 C 3,3 C 2,2 C 83 % 1017,0 hPa 0,0 l/m 0 min 0 min 0 W/m 16,1 km/h (3 Bft) 97,62 %
18.02.2019 06:48 3,8 C 3,3 C 2,2 C 84 % 1017,0 hPa 0,0 l/m 0 min 0 min 0 W/m 9,7 km/h (2 Bft) 95,92 %
18.02.2019 06:50 3,8 C 3,3 C 2,2 C 84 % 1016,9 hPa 0,0 l/m 0 min 0 min 0 W/m 9,7 km/h (2 Bft) 97,92 %
18.02.2019 06:52 3,8 C 3,3 C 2,2 C 84 % 1017,0 hPa 0,0 l/m 0 min 0 min 0 W/m 12,9 km/h (3 Bft) 97,96 %
18.02.2019 06:54 3,8 C 3,3 C 2,2 C 83 % 1016,9 hPa 0,0 l/m 0 min 0 min 0 W/m 9,7 km/h (2 Bft) 95,74 %
18.02.2019 06:56 3,8 C 3,3 C 2,2 C 83 % 1017,0 hPa 0,0 l/m 0 min 0 min 0 W/m 12,9 km/h (3 Bft) 97,83 %
18.02.2019 06:58 3,8 C 3,3 C 2,2 C 83 % 1016,9 hPa 0,0 l/m 0 min 0 min 0 W/m 9,7 km/h (2 Bft) 100,00 %
18.02.2019 07:00 3,8 C 3,3 C 2,2 C 84 % 1016,9 hPa 0,0 l/m 0 min 0 min 0 W/m 12,9 km/h (3 Bft) 100,00 %
18.02.2019 07:02 3,8 C 3,3 C 2,2 C 84 % 1016,9 hPa 0,0 l/m 0 min 0 min 0 W/m 9,7 km/h (2 Bft) 98,00 %
18.02.2019 07:04 3,8 C 3,3 C 2,2 C 84 % 1016,9 hPa 0,0 l/m 0 min 0 min 0 W/m 12,9 km/h (3 Bft) 100,00 %
18.02.2019 07:06 3,8 C 3,3 C 2,2 C 84 % 1017,0 hPa 0,0 l/m 0 min 0 min 0 W/m 16,1 km/h (3 Bft) 100,00 %
18.02.2019 07:08 3,8 C 3,3 C 2,2 C 84 % 1017,0 hPa 0,0 l/m 0 min 0 min 0 W/m 12,9 km/h (3 Bft) 100,00 %
18.02.2019 07:10 3,8 C 3,3 C 2,2 C 84 % 1016,9 hPa 0,0 l/m 0 min 0 min 0 W/m 19,3 km/h (3 Bft) 100,00 %
18.02.2019 07:12 3,8 C 3,3 C 2,2 C 84 % 1016,9 hPa 0,0 l/m 0 min 0 min 0 W/m 12,9 km/h (3 Bft) 97,87 %
18.02.2019 07:14 3,8 C 3,3 C 2,2 C 84 % 1016,9 hPa 0,0 l/m 0 min 0 min 0 W/m 12,9 km/h (3 Bft) 100,00 %
18.02.2019 07:16 3,8 C 3,3 C 2,2 C 84 % 1016,9 hPa 0,0 l/m 0 min 0 min 0 W/m 12,9 km/h (3 Bft) 97,96 %
18.02.2019 07:18 3,7 C 3,3 C 2,2 C 84 % 1016,9 hPa 0,0 l/m 0 min 0 min 0 W/m 12,9 km/h (3 Bft) 97,96 %
18.02.2019 07:20 3,7 C 3,3 C 2,2 C 84 % 1016,9 hPa 0,0 l/m 0 min 0 min 0 W/m 16,1 km/h (3 Bft) 100,00 %
18.02.2019 07:22 3,7 C 3,3 C 2,2 C 84 % 1016,9 hPa 0,0 l/m 0 min 0 min 0 W/m 12,9 km/h (3 Bft) 97,87 %
18.02.2019 07:24 3,7 C 3,3 C 2,2 C 84 % 1016,9 hPa 0,0 l/m 0 min 0 min 0 W/m 6,4 km/h (2 Bft) 97,56 %
18.02.2019 07:26 3,7 C 3,3 C 2,2 C 84 % 1016,9 hPa 0,0 l/m 0 min 0 min 0 W/m 9,7 km/h (2 Bft) 97,96 %
18.02.2019 07:28 3,7 C 3,3 C 2,2 C 84 % 1016,8 hPa 0,0 l/m 0 min 0 min 0 W/m 12,9 km/h (3 Bft) 97,96 %
18.02.2019 07:30 3,7 C 3,3 C 2,2 C 84 % 1016,8 hPa 0,0 l/m 0 min 0 min 0 W/m 9,7 km/h (2 Bft) 100,00 %
18.02.2019 07:32 3,7 C 3,3 C 2,2 C 84 % 1016,7 hPa 0,0 l/m 0 min 0 min 0 W/m 9,7 km/h (2 Bft) 100,00 %
18.02.2019 07:34 3,7 C 2,8 C 2,2 C 84 % 1016,7 hPa 0,0 l/m 0 min 0 min 0 W/m 12,9 km/h (3 Bft) 91,49 %
18.02.2019 07:36 3,7 C 2,8 C 2,2 C 84 % 1016,8 hPa 0,0 l/m 0 min 0 min 0 W/m 12,9 km/h (3 Bft) 97,62 %
18.02.2019 07:38 3,7 C 2,8 C 2,2 C 84 % 1016,8 hPa 0,0 l/m 0 min 0 min 0 W/m 9,7 km/h (2 Bft) 97,96 %
18.02.2019 07:40 3,7 C 2,8 C 2,2 C 84 % 1016,8 hPa 0,0 l/m 0 min 0 min 0 W/m 9,7 km/h (2 Bft) 97,96 %
18.02.2019 07:42 3,6 C 2,8 C 2,2 C 84 % 1016,8 hPa 0,0 l/m 0 min 0 min 0 W/m 9,7 km/h (2 Bft) 97,87 %
18.02.2019 07:44 3,6 C 2,8 C 2,2 C 84 % 1016,8 hPa 0,0 l/m 0 min 0 min 5 W/m 6,4 km/h (2 Bft) 95,74 %
18.02.2019 07:46 3,6 C 2,8 C 2,2 C 84 % 1016,8 hPa 0,0 l/m 0 min 0 min 5 W/m 12,9 km/h (3 Bft) 95,74 %
18.02.2019 07:48 3,6 C 2,8 C 2,2 C 84 % 1016,8 hPa 0,0 l/m 0 min 0 min 6 W/m 12,9 km/h (3 Bft) 97,62 %
18.02.2019 07:50 3,6 C 2,8 C 2,2 C 84 % 1016,8 hPa 0,0 l/m 0 min 0 min 7 W/m 16,1 km/h (3 Bft) 95,92 %
18.02.2019 07:52 3,6 C 2,8 C 2,2 C 84 % 1016,8 hPa 0,0 l/m 0 min 0 min 7 W/m 9,7 km/h (2 Bft) 97,96 %
18.02.2019 07:54 3,6 C 2,8 C 2,2 C 84 % 1016,8 hPa 0,0 l/m 0 min 0 min 9 W/m 12,9 km/h (3 Bft) 97,92 %
18.02.2019 07:56 3,5 C 2,8 C 2,2 C 84 % 1016,9 hPa 0,0 l/m 0 min 0 min 9 W/m 12,9 km/h (3 Bft) 96,00 %
18.02.2019 07:58 3,6 C 2,8 C 2,2 C 84 % 1016,8 hPa 0,0 l/m 0 min 0 min 11 W/m 16,1 km/h (3 Bft) 97,87 %
18.02.2019 08:00 3,5 C 2,8 C 2,2 C 84 % 1016,9 hPa 0,0 l/m 0 min 0 min 11 W/m 9,7 km/h (2 Bft) 97,87 %
18.02.2019 08:02 3,5 C 3,3 C 2,2 C 84 % 1016,8 hPa 0,0 l/m 0 min 0 min 12 W/m 16,1 km/h (3 Bft) 95,74 %
18.02.2019 08:04 3,5 C 3,3 C 2,2 C 84 % 1016,9 hPa 0,0 l/m 0 min 0 min 12 W/m 6,4 km/h (2 Bft) 95,65 %
18.02.2019 08:06 3,5 C 3,3 C 2,2 C 84 % 1016,9 hPa 0,0 l/m 0 min 0 min 13 W/m 9,7 km/h (2 Bft) 96,00 %
18.02.2019 08:08 3,5 C 3,3 C 2,2 C 84 % 1017,0 hPa 0,0 l/m 0 min 0 min 14 W/m 16,1 km/h (3 Bft) 95,35 %
18.02.2019 08:10 3,5 C 3,3 C 2,2 C 84 % 1017,0 hPa 0,0 l/m 0 min 0 min 14 W/m 12,9 km/h (3 Bft) 95,83 %
18.02.2019 08:12 3,5 C 3,3 C 2,2 C 84 % 1017,0 hPa 0,0 l/m 0 min 0 min 16 W/m 12,9 km/h (3 Bft) 98,00 %
18.02.2019 08:14 3,6 C 3,3 C 2,2 C 84 % 1017,0 hPa 0,0 l/m 0 min 0 min 16 W/m 12,9 km/h (3 Bft) 97,83 %
18.02.2019 08:16 3,6 C 3,3 C 2,2 C 84 % 1017,1 hPa 0,0 l/m 0 min 0 min 18 W/m 12,9 km/h (3 Bft) 97,87 %
18.02.2019 08:18 3,6 C 3,3 C 2,2 C 84 % 1017,0 hPa 0,0 l/m 0 min 0 min 18 W/m 12,9 km/h (3 Bft) 95,24 %
18.02.2019 08:20 3,6 C 3,3 C 2,8 C 84 % 1017,1 hPa 0,0 l/m 0 min 0 min 19 W/m 9,7 km/h (2 Bft) 97,92 %
18.02.2019 08:22 3,6 C 3,3 C 2,8 C 84 % 1017,1 hPa 0,0 l/m 0 min 0 min 19 W/m 12,9 km/h (3 Bft) 95,92 %
18.02.2019 08:24 3,6 C 3,3 C 2,8 C 84 % 1017,1 hPa 0,0 l/m 0 min 0 min 20 W/m 9,7 km/h (2 Bft) 97,96 %
18.02.2019 08:26 3,6 C 3,3 C 2,8 C 84 % 1017,0 hPa 0,0 l/m 0 min 0 min 21 W/m 9,7 km/h (2 Bft) 97,83 %
18.02.2019 08:28 3,6 C 3,3 C 2,8 C 84 % 1017,1 hPa 0,0 l/m 0 min 0 min 21 W/m 9,7 km/h (2 Bft) 97,87 %
18.02.2019 08:30 3,7 C 3,3 C 2,8 C 84 % 1017,1 hPa 0,0 l/m 0 min 0 min 22 W/m 9,7 km/h (2 Bft) 97,62 %
18.02.2019 08:32 3,7 C 3,9 C 2,8 C 84 % 1017,1 hPa 0,0 l/m 0 min 0 min 23 W/m 9,7 km/h (2 Bft) 97,96 %
18.02.2019 08:34 3,7 C 3,9 C 2,8 C 84 % 1017,1 hPa 0,0 l/m 0 min 0 min 23 W/m 6,4 km/h (2 Bft) 95,92 %
18.02.2019 08:36 3,7 C 3,9 C 2,8 C 84 % 1017,1 hPa 0,0 l/m 0 min 0 min 24 W/m 9,7 km/h (2 Bft) 95,83 %
18.02.2019 08:38 3,7 C 3,9 C 2,8 C 84 % 1017,1 hPa 0,0 l/m 0 min 0 min 25 W/m 9,7 km/h (2 Bft) 97,83 %
18.02.2019 08:40 3,8 C 3,9 C 2,8 C 84 % 1017,0 hPa 0,0 l/m 0 min 0 min 25 W/m 9,7 km/h (2 Bft) 97,87 %
18.02.2019 08:42 3,8 C 3,9 C 2,8 C 84 % 1016,9 hPa 0,0 l/m 0 min 0 min 26 W/m 9,7 km/h (2 Bft) 97,67 %
18.02.2019 08:44 3,8 C 3,9 C 2,8 C 84 % 1016,9 hPa 0,0 l/m 0 min 0 min 26 W/m 9,7 km/h (2 Bft) 97,92 %
18.02.2019 08:46 3,9 C 3,9 C 2,8 C 84 % 1016,9 hPa 0,0 l/m 0 min 0 min 26 W/m 9,7 km/h (2 Bft) 95,92 %
18.02.2019 08:48 3,9 C 3,9 C 3,3 C 84 % 1016,9 hPa 0,0 l/m 0 min 0 min 26 W/m 9,7 km/h (2 Bft) 97,92 %
18.02.2019 08:50 3,9 C 3,9 C 3,3 C 84 % 1016,9 hPa 0,0 l/m 0 min 0 min 27 W/m 9,7 km/h (2 Bft) 97,83 %
18.02.2019 08:52 3,9 C 4,4 C 3,3 C 84 % 1016,9 hPa 0,0 l/m 0 min 0 min 28 W/m 9,7 km/h (2 Bft) 95,74 %
18.02.2019 08:54 3,9 C 4,4 C 3,3 C 84 % 1016,9 hPa 0,0 l/m 0 min 0 min 28 W/m 6,4 km/h (2 Bft) 95,35 %
18.02.2019 08:56 4,0 C 4,4 C 3,3 C 84 % 1016,9 hPa 0,0 l/m 0 min 0 min 29 W/m 16,1 km/h (3 Bft) 95,83 %
18.02.2019 08:58 4,1 C 4,4 C 3,3 C 84 % 1016,9 hPa 0,0 l/m 0 min 0 min 30 W/m 9,7 km/h (2 Bft) 94,00 %
18.02.2019 09:00 4,1 C 4,4 C 3,3 C 84 % 1016,9 hPa 0,0 l/m 0 min 0 min 30 W/m 9,7 km/h (2 Bft) 93,62 %
18.02.2019 09:02 4,1 C 4,4 C 3,3 C 84 % 1016,9 hPa 0,0 l/m 0 min 0 min 31 W/m 16,1 km/h (3 Bft) 93,48 %
18.02.2019 09:04 4,2 C 4,4 C 3,3 C 84 % 1016,9 hPa 0,0 l/m 0 min 0 min 32 W/m 16,1 km/h (3 Bft) 97,87 %
18.02.2019 09:06 4,2 C 4,4 C 3,9 C 84 % 1016,9 hPa 0,0 l/m 0 min 0 min 32 W/m 12,9 km/h (3 Bft) 97,62 %
18.02.2019 09:08 4,3 C 5,0 C 3,9 C 84 % 1016,9 hPa 0,0 l/m 0 min 0 min 33 W/m 6,4 km/h (2 Bft) 97,92 %
18.02.2019 09:10 4,3 C 5,0 C 3,9 C 84 % 1016,9 hPa 0,0 l/m 0 min 0 min 33 W/m 12,9 km/h (3 Bft) 94,59 %
18.02.2019 09:12 4,4 C 5,0 C 3,9 C 84 % 1016,9 hPa 0,0 l/m 0 min 0 min 33 W/m 9,7 km/h (2 Bft) 97,96 %
18.02.2019 09:14 4,4 C 5,0 C 3,9 C 84 % 1016,9 hPa 0,0 l/m 0 min 0 min 35 W/m 12,9 km/h (3 Bft) 97,96 %
18.02.2019 09:16 4,5 C 5,0 C 3,9 C 84 % 1016,9 hPa 0,0 l/m 0 min 0 min 35 W/m 9,7 km/h (2 Bft) 95,65 %
18.02.2019 09:18 4,6 C 5,0 C 3,9 C 83 % 1017,0 hPa 0,0 l/m 0 min 0 min 36 W/m 12,9 km/h (3 Bft) 97,87 %
18.02.2019 09:20 4,7 C 5,0 C 4,4 C 83 % 1017,0 hPa 0,0 l/m 0 min 0 min 37 W/m 12,9 km/h (3 Bft) 96,00 %
18.02.2019 09:22 4,7 C 5,6 C 4,4 C 83 % 1016,9 hPa 0,0 l/m 0 min 0 min 37 W/m 12,9 km/h (3 Bft) 97,87 %
18.02.2019 09:24 4,8 C 5,6 C 4,4 C 83 % 1016,9 hPa 0,0 l/m 0 min 0 min 45 W/m 12,9 km/h (3 Bft) 95,24 %
18.02.2019 09:26 4,9 C 6,7 C 4,4 C 83 % 1016,9 hPa 0,0 l/m 2 min 0 min 155 W/m 9,7 km/h (2 Bft) 97,96 %
18.02.2019 09:28 5,0 C 7,8 C 4,4 C 83 % 1016,9 hPa 0,0 l/m 2 min 0 min 215 W/m 12,9 km/h (3 Bft) 97,96 %
18.02.2019 09:30 5,1 C 8,3 C 4,4 C 83 % 1016,9 hPa 0,0 l/m 2 min 0 min 220 W/m 16,1 km/h (3 Bft) 97,87 %
18.02.2019 09:32 5,2 C 9,4 C 4,4 C 82 % 1016,9 hPa 0,0 l/m 2 min 0 min 225 W/m 16,1 km/h (3 Bft) 95,74 %
18.02.2019 09:34 5,3 C 9,4 C 5,0 C 82 % 1016,9 hPa 0,0 l/m 2 min 0 min 230 W/m 9,7 km/h (2 Bft) 97,56 %
18.02.2019 09:36 5,5 C 10,0 C 5,0 C 82 % 1016,9 hPa 0,0 l/m 2 min 0 min 235 W/m 12,9 km/h (3 Bft) 93,88 %
18.02.2019 09:38 5,6 C 10,0 C 5,0 C 82 % 1016,8 hPa 0,0 l/m 2 min 0 min 240 W/m 25,7 km/h (4 Bft) 97,96 %
18.02.2019 09:40 5,8 C 10,0 C 5,0 C 81 % 1016,8 hPa 0,0 l/m 2 min 0 min 245 W/m 16,1 km/h (3 Bft) 100,00 %
18.02.2019 09:42 5,9 C 10,6 C 5,6 C 81 % 1016,8 hPa 0,0 l/m 2 min 0 min 251 W/m 12,9 km/h (3 Bft) 100,00 %
18.02.2019 09:44 6,1 C 10,0 C 6,7 C 81 % 1016,9 hPa 0,0 l/m 2 min 0 min 256 W/m 12,9 km/h (3 Bft) 97,96 %
18.02.2019 09:46 6,2 C 10,6 C 7,8 C 80 % 1016,8 hPa 0,0 l/m 2 min 0 min 259 W/m 12,9 km/h (3 Bft) 100,00 %
18.02.2019 09:48 6,4 C 10,6 C 8,9 C 80 % 1016,8 hPa 0,0 l/m 2 min 0 min 265 W/m 9,7 km/h (2 Bft) 97,96 %
18.02.2019 09:50 6,5 C 10,6 C 9,4 C 79 % 1016,8 hPa 0,0 l/m 2 min 0 min 269 W/m 16,1 km/h (3 Bft) 100,00 %
18.02.2019 09:52 6,7 C 11,1 C 10,0 C 79 % 1016,8 hPa 0,0 l/m 2 min 0 min 275 W/m 12,9 km/h (3 Bft) 97,96 %
18.02.2019 09:54 6,8 C 11,7 C 10,6 C 78 % 1016,7 hPa 0,0 l/m 2 min 0 min 279 W/m 9,7 km/h (2 Bft) 100,00 %
18.02.2019 09:56 6,9 C 11,7 C 11,1 C 78 % 1016,7 hPa 0,0 l/m 2 min 0 min 284 W/m 12,9 km/h (3 Bft) 100,00 %
18.02.2019 09:58 7,1 C 11,7 C 11,1 C 77 % 1016,7 hPa 0,0 l/m 2 min 0 min 288 W/m 12,9 km/h (3 Bft) 100,00 %
18.02.2019 10:00 7,2 C 11,1 C 11,1 C 77 % 1016,7 hPa 0,0 l/m 2 min 0 min 293 W/m 19,3 km/h (3 Bft) 100,00 %
18.02.2019 10:02 7,4 C 12,2 C 11,1 C 76 % 1016,7 hPa 0,0 l/m 2 min 0 min 298 W/m 9,7 km/h (2 Bft) 98,00 %
18.02.2019 10:04 7,5 C 12,2 C 11,1 C 76 % 1016,7 hPa 0,0 l/m 2 min 0 min 302 W/m 16,1 km/h (3 Bft) 100,00 %
18.02.2019 10:06 7,7 C 12,2 C 11,1 C 75 % 1016,6 hPa 0,0 l/m 2 min 0 min 306 W/m 12,9 km/h (3 Bft) 98,36 %
18.02.2019 10:08 7,8 C 11,7 C 9,4 C 74 % 1016,6 hPa 0,0 l/m 2 min 0 min 311 W/m 22,5 km/h (4 Bft) 100,00 %
18.02.2019 10:10 7,9 C 11,7 C 8,3 C 74 % 1016,6 hPa 0,0 l/m 2 min 0 min 316 W/m 12,9 km/h (3 Bft) 93,62 %
18.02.2019 10:12 8,0 C 11,7 C 8,3 C 73 % 1016,6 hPa 0,0 l/m 2 min 0 min 320 W/m 16,1 km/h (3 Bft) 93,62 %
18.02.2019 10:14 8,1 C 12,2 C 7,8 C 73 % 1016,6 hPa 0,0 l/m 2 min 0 min 324 W/m 12,9 km/h (3 Bft) 100,00 %
18.02.2019 10:16 8,2 C 12,2 C 7,8 C 72 % 1016,6 hPa 0,0 l/m 2 min 0 min 328 W/m 16,1 km/h (3 Bft) 100,00 %
18.02.2019 10:18 8,3 C 12,2 C 7,8 C 72 % 1016,6 hPa 0,0 l/m 2 min 0 min 332 W/m 16,1 km/h (3 Bft) 100,00 %
18.02.2019 10:20 8,4 C 12,2 C 7,8 C 72 % 1016,6 hPa 0,0 l/m 2 min 0 min 337 W/m 22,5 km/h (4 Bft) 93,75 %
18.02.2019 10:22 8,5 C 11,7 C 7,8 C 71 % 1016,6 hPa 0,0 l/m 2 min 0 min 342 W/m 19,3 km/h (3 Bft) 97,87 %
18.02.2019 10:24 8,6 C 12,2 C 7,8 C 71 % 1016,6 hPa 0,0 l/m 2 min 0 min 345 W/m 16,1 km/h (3 Bft) 93,62 %
18.02.2019 10:26 8,7 C 12,8 C 7,8 C 71 % 1016,6 hPa 0,0 l/m 2 min 0 min 349 W/m 12,9 km/h (3 Bft) 97,62 %
18.02.2019 10:28 8,7 C 12,8 C 7,8 C 71 % 1016,6 hPa 0,0 l/m 2 min 0 min 353 W/m 16,1 km/h (3 Bft) 97,96 %
18.02.2019 10:30 8,8 C 12,8 C 7,8 C 70 % 1016,6 hPa 0,0 l/m 2 min 0 min 358 W/m 16,1 km/h (3 Bft) 95,83 %
18.02.2019 10:32 8,9 C 12,8 C 7,8 C 70 % 1016,6 hPa 0,0 l/m 2 min 0 min 362 W/m 16,1 km/h (3 Bft) 97,92 %
18.02.2019 10:34 8,9 C 13,9 C 7,8 C 70 % 1016,6 hPa 0,0 l/m 2 min 0 min 365 W/m 12,9 km/h (3 Bft) 97,87 %
18.02.2019 10:36 9,1 C 13,9 C 7,8 C 70 % 1016,6 hPa 0,0 l/m 2 min 0 min 371 W/m 16,1 km/h (3 Bft) 95,92 %
18.02.2019 10:38 9,1 C 13,9 C 8,3 C 69 % 1016,5 hPa 0,0 l/m 2 min 0 min 374 W/m 16,1 km/h (3 Bft) 97,87 %
18.02.2019 10:40 9,2 C 13,9 C 8,3 C 70 % 1016,5 hPa 0,0 l/m 2 min 0 min 378 W/m 12,9 km/h (3 Bft) 97,87 %
18.02.2019 10:42 9,3 C 14,4 C 8,3 C 69 % 1016,5 hPa 0,0 l/m 2 min 0 min 381 W/m 9,7 km/h (2 Bft) 97,83 %
18.02.2019 10:44 9,4 C 13,9 C 8,3 C 69 % 1016,6 hPa 0,0 l/m 2 min 0 min 385 W/m 22,5 km/h (4 Bft) 97,87 %
18.02.2019 10:46 9,4 C 13,3 C 7,8 C 68 % 1016,6 hPa 0,0 l/m 2 min 0 min 388 W/m 19,3 km/h (3 Bft) 95,74 %
18.02.2019 10:48 9,5 C 13,9 C 8,3 C 68 % 1016,7 hPa 0,0 l/m 2 min 0 min 392 W/m 9,7 km/h (2 Bft) 97,87 %
18.02.2019 10:50 9,6 C 13,9 C 8,3 C 68 % 1016,6 hPa 0,0 l/m 2 min 0 min 396 W/m 19,3 km/h (3 Bft) 95,74 %
18.02.2019 10:52 9,6 C 13,3 C 8,3 C 68 % 1016,6 hPa 0,0 l/m 2 min 0 min 399 W/m 22,5 km/h (4 Bft) 97,87 %
18.02.2019 10:54 9,7 C 13,3 C 8,3 C 67 % 1016,6 hPa 0,0 l/m 2 min 0 min 403 W/m 16,1 km/h (3 Bft) 100,00 %
18.02.2019 10:56 9,7 C 12,8 C 8,3 C 67 % 1016,6 hPa 0,0 l/m 2 min 0 min 405 W/m 16,1 km/h (3 Bft) 97,92 %
18.02.2019 10:58 9,7 C 13,3 C 8,3 C 67 % 1016,6 hPa 0,0 l/m 2 min 0 min 410 W/m 16,1 km/h (3 Bft) 95,74 %
18.02.2019 11:00 9,7 C 13,9 C 8,3 C 67 % 1016,6 hPa 0,0 l/m 2 min 0 min 413 W/m 22,5 km/h (4 Bft) 95,65 %
18.02.2019 11:02 9,8 C 13,3 C 8,3 C 67 % 1016,5 hPa 0,0 l/m 2 min 0 min 416 W/m 19,3 km/h (3 Bft) 95,74 %
18.02.2019 11:04 9,8 C 13,9 C 8,3 C 67 % 1016,5 hPa 0,0 l/m 2 min 0 min 420 W/m 16,1 km/h (3 Bft) 95,74 %
18.02.2019 11:06 9,9 C 13,9 C 8,3 C 67 % 1016,5 hPa 0,0 l/m 2 min 0 min 423 W/m 19,3 km/h (3 Bft) 91,49 %
18.02.2019 11:08 9,9 C 15,0 C 8,3 C 67 % 1016,5 hPa 0,0 l/m 2 min 0 min 425 W/m 12,9 km/h (3 Bft) 93,75 %
18.02.2019 11:10 10,0 C 14,4 C 8,9 C 67 % 1016,5 hPa 0,0 l/m 2 min 0 min 428 W/m 16,1 km/h (3 Bft) 95,74 %
18.02.2019 11:12 10,1 C 13,9 C 8,9 C 67 % 1016,4 hPa 0,0 l/m 2 min 0 min 431 W/m 19,3 km/h (3 Bft) 95,74 %
18.02.2019 11:14 10,1 C 13,9 C 8,9 C 67 % 1016,4 hPa 0,0 l/m 2 min 0 min 435 W/m 12,9 km/h (3 Bft) 95,74 %
18.02.2019 11:16 10,2 C 13,3 C 8,9 C 66 % 1016,4 hPa 0,0 l/m 2 min 0 min 438 W/m 19,3 km/h (3 Bft) 95,65 %
18.02.2019 11:18 10,3 C 13,3 C 8,9 C 66 % 1016,4 hPa 0,0 l/m 2 min 0 min 439 W/m 16,1 km/h (3 Bft) 91,49 %
18.02.2019 11:20 10,3 C 13,9 C 8,9 C 66 % 1016,3 hPa 0,0 l/m 2 min 0 min 444 W/m 19,3 km/h (3 Bft) 93,62 %
18.02.2019 11:22 10,3 C 14,4 C 8,9 C 66 % 1016,4 hPa 0,0 l/m 2 min 0 min 446 W/m 16,1 km/h (3 Bft) 94,74 %
18.02.2019 11:24 10,4 C 14,4 C 9,4 C 66 % 1016,4 hPa 0,0 l/m 2 min 0 min 449 W/m 16,1 km/h (3 Bft) 93,62 %
18.02.2019 11:26 10,4 C 15,6 C 9,4 C 66 % 1016,3 hPa 0,0 l/m 2 min 0 min 452 W/m 16,1 km/h (3 Bft) 92,73 %
18.02.2019 11:28 10,5 C 15,6 C 9,4 C 66 % 1016,4 hPa 0,0 l/m 2 min 0 min 454 W/m 16,1 km/h (3 Bft) 95,74 %
18.02.2019 11:30 10,6 C 15,6 C 9,4 C 66 % 1016,4 hPa 0,0 l/m 2 min 0 min 455 W/m 16,1 km/h (3 Bft) 91,49 %
18.02.2019 11:32 10,7 C 15,0 C 9,4 C 65 % 1016,3 hPa 0,0 l/m 2 min 0 min 458 W/m 22,5 km/h (4 Bft) 95,74 %
18.02.2019 11:34 10,8 C 15,0 C 9,4 C 64 % 1016,4 hPa 0,0 l/m 2 min 0 min 461 W/m 25,7 km/h (4 Bft) 95,65 %
18.02.2019 11:36 10,8 C 15,0 C 10,0 C 64 % 1016,3 hPa 0,0 l/m 2 min 0 min 464 W/m 22,5 km/h (4 Bft) 91,49 %
18.02.2019 11:38 10,9 C 15,6 C 10,0 C 64 % 1016,3 hPa 0,0 l/m 2 min 0 min 466 W/m 22,5 km/h (4 Bft) 95,74 %
18.02.2019 11:40 10,9 C 15,6 C 10,0 C 64 % 1016,3 hPa 0,0 l/m 2 min 0 min 468 W/m 16,1 km/h (3 Bft) 95,74 %
18.02.2019 11:42 11,1 C 16,1 C 10,0 C 64 % 1016,3 hPa 0,0 l/m 2 min 0 min 470 W/m 16,1 km/h (3 Bft) 95,74 %
18.02.2019 11:44 11,2 C 16,1 C 10,0 C 64 % 1016,3 hPa 0,0 l/m 2 min 0 min 474 W/m 19,3 km/h (3 Bft) 96,00 %
18.02.2019 11:46 11,2 C 15,6 C 10,6 C 64 % 1016,2 hPa 0,0 l/m 2 min 0 min 475 W/m 12,9 km/h (3 Bft) 95,65 %
18.02.2019 11:48 11,3 C 16,7 C 10,6 C 64 % 1016,2 hPa 0,0 l/m 2 min 0 min 477 W/m 19,3 km/h (3 Bft) 97,87 %
18.02.2019 11:50 11,4 C 17,2 C 10,6 C 64 % 1016,2 hPa 0,0 l/m 2 min 0 min 480 W/m 9,7 km/h (2 Bft) 97,87 %
18.02.2019 11:52 11,6 C 17,8 C 10,6 C 64 % 1016,2 hPa 0,0 l/m 2 min 0 min 482 W/m 12,9 km/h (3 Bft) 100,00 %
18.02.2019 11:54 11,7 C 16,7 C 10,6 C 63 % 1016,2 hPa 0,0 l/m 2 min 0 min 483 W/m 19,3 km/h (3 Bft) 97,87 %
18.02.2019 11:56 11,8 C 16,7 C 10,6 C 63 % 1016,2 hPa 0,0 l/m 2 min 0 min 485 W/m 22,5 km/h (4 Bft) 100,00 %
18.02.2019 11:58 11,9 C 16,7 C 10,6 C 62 % 1016,1 hPa 0,0 l/m 2 min 0 min 487 W/m 16,1 km/h (3 Bft) 93,48 %
18.02.2019 12:00 12,0 C 17,2 C 10,6 C 62 % 1016,2 hPa 0,0 l/m 2 min 0 min 489 W/m 19,3 km/h (3 Bft) 97,87 %
18.02.2019 12:02 12,1 C 16,1 C 10,6 C 62 % 1016,1 hPa 0,0 l/m 2 min 0 min 490 W/m 19,3 km/h (3 Bft) 97,87 %
18.02.2019 12:04 12,2 C 17,2 C 11,1 C 62 % 1016,1 hPa 0,0 l/m 2 min 0 min 492 W/m 19,3 km/h (3 Bft) 97,87 %
18.02.2019 12:08 12,3 C 17,2 C 11,1 C 62 % 1016,1 hPa 0,0 l/m 4 min 0 min 494 W/m 16,1 km/h (3 Bft) 97,87 %
18.02.2019 12:10 12,4 C 17,2 C 11,1 C 61 % 1016,1 hPa 0,0 l/m 2 min 0 min 496 W/m 19,3 km/h (3 Bft) 100,00 %
18.02.2019 12:12 12,5 C 17,2 C 11,1 C 61 % 1016,1 hPa 0,0 l/m 2 min 0 min 497 W/m 16,1 km/h (3 Bft) 97,22 %
18.02.2019 12:14 12,6 C 17,8 C 11,7 C 61 % 1016,1 hPa 0,0 l/m 2 min 0 min 498 W/m 12,9 km/h (3 Bft) 97,87 %
18.02.2019 12:16 12,7 C 17,2 C 11,7 C 61 % 1016,1 hPa 0,0 l/m 2 min 0 min 499 W/m 16,1 km/h (3 Bft) 100,00 %
18.02.2019 12:18 12,7 C 17,8 C 11,7 C 61 % 1016,0 hPa 0,0 l/m 2 min 0 min 500 W/m 12,9 km/h (3 Bft) 97,87 %
18.02.2019 12:20 12,8 C 17,8 C 11,7 C 61 % 1016,0 hPa 0,0 l/m 2 min 0 min 501 W/m 12,9 km/h (3 Bft) 100,00 %
18.02.2019 12:22 12,9 C 17,8 C 11,7 C 60 % 1016,0 hPa 0,0 l/m 2 min 0 min 502 W/m 16,1 km/h (3 Bft) 97,87 %
18.02.2019 12:24 12,9 C 18,3 C 12,2 C 61 % 1015,9 hPa 0,0 l/m 2 min 0 min 502 W/m 12,9 km/h (3 Bft) 97,87 %
18.02.2019 12:26 13,0 C 18,3 C 12,2 C 60 % 1015,9 hPa 0,0 l/m 2 min 0 min 503 W/m 12,9 km/h (3 Bft) 100,00 %
18.02.2019 12:28 13,1 C 18,9 C 12,2 C 61 % 1015,9 hPa 0,0 l/m 2 min 0 min 503 W/m 12,9 km/h (3 Bft) 95,65 %
18.02.2019 12:30 13,2 C 19,4 C 12,8 C 61 % 1015,8 hPa 0,0 l/m 2 min 0 min 504 W/m 12,9 km/h (3 Bft) 97,87 %
18.02.2019 12:32 13,2 C 18,9 C 12,8 C 61 % 1015,8 hPa 0,0 l/m 2 min 0 min 505 W/m 16,1 km/h (3 Bft) 97,87 %
18.02.2019 12:34 13,3 C 18,9 C 13,9 C 61 % 1015,8 hPa 0,0 l/m 2 min 0 min 506 W/m 9,7 km/h (2 Bft) 98,18 %
18.02.2019 12:36 13,4 C 19,4 C 15,0 C 60 % 1015,7 hPa 0,0 l/m 2 min 0 min 506 W/m 12,9 km/h (3 Bft) 96,00 %
18.02.2019 12:38 13,6 C 18,9 C 17,2 C 60 % 1015,8 hPa 0,0 l/m 2 min 0 min 507 W/m 16,1 km/h (3 Bft) 95,74 %
18.02.2019 12:40 13,7 C 18,9 C 18,3 C 59 % 1015,8 hPa 0,0 l/m 2 min 0 min 503 W/m 22,5 km/h (4 Bft) 97,87 %
18.02.2019 12:42 13,7 C 20,0 C 20,0 C 60 % 1015,7 hPa 0,0 l/m 2 min 0 min 509 W/m 9,7 km/h (2 Bft) 97,87 %
18.02.2019 12:44 13,8 C 18,9 C 20,0 C 59 % 1015,7 hPa 0,0 l/m 2 min 0 min 510 W/m 16,1 km/h (3 Bft) 97,83 %
18.02.2019 12:46 13,9 C 18,9 C 20,0 C 59 % 1015,7 hPa 0,0 l/m 2 min 0 min 511 W/m 16,1 km/h (3 Bft) 97,87 %
18.02.2019 12:48 14,0 C 18,9 C 20,0 C 58 % 1015,6 hPa 0,0 l/m 2 min 0 min 512 W/m 12,9 km/h (3 Bft) 97,87 %
18.02.2019 12:50 14,1 C 17,8 C 19,4 C 58 % 1015,6 hPa 0,0 l/m 2 min 0 min 512 W/m 19,3 km/h (3 Bft) 97,87 %
18.02.2019 12:52 14,2 C 18,9 C 20,6 C 58 % 1015,5 hPa 0,0 l/m 2 min 0 min 511 W/m 12,9 km/h (3 Bft) 97,37 %
18.02.2019 12:54 14,2 C 19,4 C 20,6 C 57 % 1015,6 hPa 0,0 l/m 2 min 0 min 505 W/m 12,9 km/h (3 Bft) 97,87 %
18.02.2019 12:56 14,2 C 18,9 C 20,6 C 57 % 1015,5 hPa 0,0 l/m 2 min 0 min 510 W/m 16,1 km/h (3 Bft) 97,87 %
18.02.2019 12:58 14,2 C 19,4 C 20,0 C 57 % 1015,5 hPa 0,0 l/m 2 min 0 min 511 W/m 12,9 km/h (3 Bft) 95,74 %
18.02.2019 13:00 14,3 C 20,0 C 21,1 C 57 % 1015,5 hPa 0,0 l/m 2 min 0 min 510 W/m 12,9 km/h (3 Bft) 95,74 %
18.02.2019 13:02 14,4 C 19,4 C 21,1 C 57 % 1015,6 hPa 0,0 l/m 2 min 0 min 511 W/m 16,1 km/h (3 Bft) 97,87 %
18.02.2019 13:04 14,4 C 20,0 C 21,1 C 57 % 1015,6 hPa 0,0 l/m 2 min 0 min 510 W/m 9,7 km/h (2 Bft) 95,65 %
18.02.2019 13:06 14,5 C 20,0 C 20,6 C 58 % 1015,6 hPa 0,0 l/m 2 min 0 min 510 W/m 16,1 km/h (3 Bft) 97,87 %
18.02.2019 13:08 14,6 C 20,0 C 20,6 C 57 % 1015,5 hPa 0,0 l/m 2 min 0 min 510 W/m 9,7 km/h (2 Bft) 98,18 %
18.02.2019 13:10 14,7 C 20,6 C 20,0 C 57 % 1015,4 hPa 0,0 l/m 2 min 0 min 509 W/m 16,1 km/h (3 Bft) 97,87 %
18.02.2019 13:12 14,7 C 21,7 C 19,4 C 57 % 1015,5 hPa 0,0 l/m 2 min 0 min 509 W/m 12,9 km/h (3 Bft) 97,87 %
18.02.2019 13:14 14,8 C 21,1 C 18,3 C 56 % 1015,4 hPa 0,0 l/m 2 min 0 min 509 W/m 12,9 km/h (3 Bft) 100,00 %
18.02.2019 13:16 14,9 C 20,6 C 17,2 C 56 % 1015,3 hPa 0,0 l/m 2 min 0 min 507 W/m 12,9 km/h (3 Bft) 97,87 %
18.02.2019 13:18 14,9 C 20,0 C 17,8 C 56 % 1015,3 hPa 0,0 l/m 2 min 0 min 507 W/m 16,1 km/h (3 Bft) 97,87 %
18.02.2019 13:20 15,0 C 20,6 C 18,3 C 56 % 1015,2 hPa 0,0 l/m 2 min 0 min 506 W/m 9,7 km/h (2 Bft) 97,37 %
18.02.2019 13:22 15,1 C 20,6 C 17,2 C 56 % 1015,2 hPa 0,0 l/m 2 min 0 min 505 W/m 12,9 km/h (3 Bft) 97,87 %
18.02.2019 13:24 15,1 C 20,6 C 17,2 C 56 % 1015,1 hPa 0,0 l/m 2 min 0 min 504 W/m 9,7 km/h (2 Bft) 97,96 %
18.02.2019 13:26 15,2 C 20,6 C 17,8 C 56 % 1015,1 hPa 0,0 l/m 2 min 0 min 503 W/m 9,7 km/h (2 Bft) 97,83 %
18.02.2019 13:28 15,2 C 20,0 C 16,7 C 56 % 1015,1 hPa 0,0 l/m 2 min 0 min 500 W/m 12,9 km/h (3 Bft) 95,74 %
18.02.2019 13:30 15,3 C 20,0 C 15,6 C 56 % 1015,1 hPa 0,0 l/m 2 min 0 min 499 W/m 12,9 km/h (3 Bft) 95,74 %
18.02.2019 13:32 15,3 C 19,4 C 15,0 C 55 % 1015,0 hPa 0,0 l/m 2 min 0 min 499 W/m 16,1 km/h (3 Bft) 95,74 %
18.02.2019 13:34 15,3 C 20,0 C 14,4 C 56 % 1015,0 hPa 0,0 l/m 2 min 0 min 499 W/m 9,7 km/h (2 Bft) 95,74 %
18.02.2019 13:36 15,3 C 20,0 C 14,4 C 56 % 1014,9 hPa 0,0 l/m 2 min 0 min 498 W/m 19,3 km/h (3 Bft) 95,74 %
18.02.2019 13:38 15,4 C 20,6 C 14,4 C 55 % 1014,9 hPa 0,0 l/m 2 min 0 min 496 W/m 9,7 km/h (2 Bft) 91,30 %
18.02.2019 13:40 15,4 C 21,1 C 14,4 C 56 % 1014,9 hPa 0,0 l/m 2 min 0 min 495 W/m 9,7 km/h (2 Bft) 95,74 %
18.02.2019 13:42 15,4 C 20,6 C 14,4 C 55 % 1014,8 hPa 0,0 l/m 2 min 0 min 494 W/m 12,9 km/h (3 Bft) 93,62 %
18.02.2019 13:44 15,4 C 20,6 C 14,4 C 55 % 1014,8 hPa 0,0 l/m 2 min 0 min 492 W/m 12,9 km/h (3 Bft) 91,49 %
18.02.2019 13:46 15,4 C 21,7 C 14,4 C 56 % 1014,6 hPa 0,0 l/m 2 min 0 min 489 W/m 9,7 km/h (2 Bft) 91,49 %
18.02.2019 13:48 15,5 C 20,0 C 14,4 C 55 % 1014,7 hPa 0,0 l/m 2 min 0 min 488 W/m 16,1 km/h (3 Bft) 93,48 %
18.02.2019 13:50 15,6 C 20,6 C 14,4 C 54 % 1014,6 hPa 0,0 l/m 2 min 0 min 488 W/m 12,9 km/h (3 Bft) 95,74 %
18.02.2019 13:52 15,6 C 20,6 C 14,4 C 53 % 1014,6 hPa 0,0 l/m 2 min 0 min 486 W/m 9,7 km/h (2 Bft) 95,74 %
18.02.2019 13:54 15,7 C 20,0 C 14,4 C 53 % 1014,5 hPa 0,0 l/m 2 min 0 min 484 W/m 12,9 km/h (3 Bft) 97,87 %
18.02.2019 13:56 15,7 C 20,0 C 14,4 C 53 % 1014,4 hPa 0,0 l/m 2 min 0 min 482 W/m 12,9 km/h (3 Bft) 93,62 %
18.02.2019 13:58 15,7 C 20,0 C 14,4 C 52 % 1014,4 hPa 0,0 l/m 2 min 0 min 480 W/m 12,9 km/h (3 Bft) 93,62 %
18.02.2019 14:00 15,8 C 20,0 C 14,4 C 52 % 1014,4 hPa 0,0 l/m 2 min 0 min 476 W/m 12,9 km/h (3 Bft) 93,62 %
18.02.2019 14:02 15,8 C 21,1 C 14,4 C 53 % 1014,3 hPa 0,0 l/m 2 min 0 min 475 W/m 9,7 km/h (2 Bft) 95,65 %
18.02.2019 14:04 15,9 C 21,1 C 15,0 C 52 % 1014,3 hPa 0,0 l/m 2 min 0 min 473 W/m 12,9 km/h (3 Bft) 95,74 %
18.02.2019 14:06 15,9 C 20,6 C 14,4 C 52 % 1014,3 hPa 0,0 l/m 2 min 0 min 470 W/m 12,9 km/h (3 Bft) 95,74 %
18.02.2019 14:08 15,9 C 20,6 C 14,4 C 51 % 1014,3 hPa 0,0 l/m 2 min 0 min 469 W/m 9,7 km/h (2 Bft) 95,74 %
18.02.2019 14:10 15,9 C 20,6 C 14,4 C 51 % 1014,3 hPa 0,0 l/m 2 min 0 min 467 W/m 16,1 km/h (3 Bft) 95,74 %
18.02.2019 14:12 16,0 C 21,1 C 14,4 C 51 % 1014,3 hPa 0,0 l/m 2 min 0 min 463 W/m 16,1 km/h (3 Bft) 93,48 %
18.02.2019 14:14 16,0 C 20,6 C 14,4 C 50 % 1014,3 hPa 0,0 l/m 2 min 0 min 461 W/m 19,3 km/h (3 Bft) 97,87 %
18.02.2019 14:16 16,1 C 20,6 C 14,4 C 50 % 1014,2 hPa 0,0 l/m 2 min 0 min 456 W/m 9,7 km/h (2 Bft) 97,87 %
18.02.2019 14:18 16,1 C 21,1 C 15,0 C 50 % 1014,1 hPa 0,0 l/m 2 min 0 min 454 W/m 12,9 km/h (3 Bft) 97,87 %
18.02.2019 14:20 16,1 C 21,1 C 15,0 C 50 % 1014,1 hPa 0,0 l/m 2 min 0 min 451 W/m 16,1 km/h (3 Bft) 97,87 %
18.02.2019 14:22 16,1 C 21,7 C 15,6 C 50 % 1014,0 hPa 0,0 l/m 2 min 0 min 449 W/m 9,7 km/h (2 Bft) 97,87 %
18.02.2019 14:24 16,2 C 21,7 C 15,0 C 50 % 1014,0 hPa 0,0 l/m 2 min 0 min 446 W/m 9,7 km/h (2 Bft) 97,83 %
18.02.2019 14:26 16,2 C 21,1 C 15,0 C 50 % 1013,9 hPa 0,0 l/m 2 min 0 min 443 W/m 6,4 km/h (2 Bft) 97,87 %
18.02.2019 14:28 16,2 C 20,6 C 15,0 C 50 % 1013,9 hPa 0,0 l/m 2 min 0 min 441 W/m 16,1 km/h (3 Bft) 97,83 %
18.02.2019 14:30 16,3 C 20,6 C 15,0 C 50 % 1013,9 hPa 0,0 l/m 2 min 0 min 436 W/m 12,9 km/h (3 Bft) 100,00 %
18.02.2019 14:32 16,3 C 20,6 C 15,6 C 50 % 1013,8 hPa 0,0 l/m 2 min 0 min 433 W/m 12,9 km/h (3 Bft) 100,00 %
18.02.2019 14:34 16,3 C 20,6 C 15,0 C 50 % 1013,8 hPa 0,0 l/m 2 min 0 min 431 W/m 12,9 km/h (3 Bft) 100,00 %
18.02.2019 14:36 16,3 C 21,1 C 15,0 C 51 % 1013,7 hPa 0,0 l/m 2 min 0 min 430 W/m 9,7 km/h (2 Bft) 98,31 %
18.02.2019 14:38 16,3 C 21,7 C 15,0 C 50 % 1013,7 hPa 0,0 l/m 2 min 0 min 427 W/m 9,7 km/h (2 Bft) 100,00 %
18.02.2019 14:40 16,4 C 20,6 C 15,0 C 50 % 1013,7 hPa 0,0 l/m 2 min 0 min 423 W/m 16,1 km/h (3 Bft) 100,00 %
18.02.2019 14:42 16,4 C 20,0 C 15,0 C 49 % 1013,7 hPa 0,0 l/m 2 min 0 min 420 W/m 12,9 km/h (3 Bft) 100,00 %
18.02.2019 14:44 16,4 C 20,0 C 15,0 C 48 % 1013,6 hPa 0,0 l/m 2 min 0 min 419 W/m 12,9 km/h (3 Bft) 100,00 %
18.02.2019 14:46 16,4 C 20,6 C 15,0 C 49 % 1013,7 hPa 0,0 l/m 2 min 0 min 416 W/m 9,7 km/h (2 Bft) 100,00 %
18.02.2019 14:48 16,4 C 20,6 C 15,0 C 50 % 1013,9 hPa 0,0 l/m 2 min 0 min 411 W/m 9,7 km/h (2 Bft) 100,00 %
18.02.2019 14:50 16,4 C 21,1 C 15,0 C 49 % 1013,7 hPa 0,0 l/m 2 min 0 min 408 W/m 12,9 km/h (3 Bft) 100,00 %
18.02.2019 14:52 16,4 C 20,6 C 15,0 C 48 % 1013,7 hPa 0,0 l/m 2 min 0 min 406 W/m 9,7 km/h (2 Bft) 100,00 %
18.02.2019 14:54 16,4 C 21,1 C 15,0 C 48 % 1013,7 hPa 0,0 l/m 2 min 0 min 404 W/m 9,7 km/h (2 Bft) 100,00 %
18.02.2019 14:56 16,5 C 21,7 C 15,0 C 48 % 1013,7 hPa 0,0 l/m 2 min 0 min 400 W/m 12,9 km/h (3 Bft) 100,00 %
18.02.2019 14:58 16,5 C 20,6 C 15,0 C 48 % 1013,7 hPa 0,0 l/m 2 min 0 min 396 W/m 16,1 km/h (3 Bft) 100,00 %
18.02.2019 15:00 16,6 C 21,1 C 15,0 C 48 % 1013,7 hPa 0,0 l/m 2 min 0 min 392 W/m 6,4 km/h (2 Bft) 100,00 %
18.02.2019 15:02 16,6 C 21,1 C 15,0 C 48 % 1013,6 hPa 0,0 l/m 2 min 0 min 389 W/m 12,9 km/h (3 Bft) 97,87 %
18.02.2019 15:04 16,6 C 21,1 C 15,0 C 47 % 1013,5 hPa 0,0 l/m 2 min 0 min 385 W/m 9,7 km/h (2 Bft) 100,00 %
18.02.2019 15:06 16,7 C 20,6 C 15,0 C 47 % 1013,4 hPa 0,0 l/m 2 min 0 min 378 W/m 9,7 km/h (2 Bft) 100,00 %
18.02.2019 15:08 16,7 C 20,6 C 15,0 C 48 % 1013,4 hPa 0,0 l/m 2 min 0 min 370 W/m 12,9 km/h (3 Bft) 100,00 %
18.02.2019 15:10 16,7 C 19,4 C 15,0 C 48 % 1013,5 hPa 0,0 l/m 2 min 0 min 366 W/m 12,9 km/h (3 Bft) 100,00 %
18.02.2019 15:12 16,7 C 20,0 C 15,0 C 48 % 1013,4 hPa 0,0 l/m 2 min 0 min 367 W/m 16,1 km/h (3 Bft) 100,00 %
18.02.2019 15:14 16,7 C 20,6 C 15,0 C 48 % 1013,5 hPa 0,0 l/m 2 min 0 min 366 W/m 12,9 km/h (3 Bft) 100,00 %
18.02.2019 15:16 16,7 C 20,0 C 14,4 C 48 % 1013,5 hPa 0,0 l/m 2 min 0 min 362 W/m 12,9 km/h (3 Bft) 100,00 %
18.02.2019 15:18 16,7 C 19,4 C 14,4 C 48 % 1013,5 hPa 0,0 l/m 2 min 0 min 358 W/m 16,1 km/h (3 Bft) 100,00 %
18.02.2019 15:20 16,7 C 19,4 C 14,4 C 48 % 1013,4 hPa 0,0 l/m 2 min 0 min 354 W/m 12,9 km/h (3 Bft) 100,00 %
18.02.2019 15:22 16,6 C 18,9 C 14,4 C 48 % 1013,3 hPa 0,0 l/m 2 min 0 min 348 W/m 22,5 km/h (4 Bft) 100,00 %
18.02.2019 15:24 16,6 C 18,9 C 14,4 C 48 % 1013,4 hPa 0,0 l/m 2 min 0 min 344 W/m 19,3 km/h (3 Bft) 97,87 %
18.02.2019 15:26 16,5 C 19,4 C 14,4 C 48 % 1013,4 hPa 0,0 l/m 2 min 0 min 340 W/m 16,1 km/h (3 Bft) 100,00 %
18.02.2019 15:28 16,5 C 19,4 C 14,4 C 48 % 1013,3 hPa 0,0 l/m 2 min 0 min 336 W/m 12,9 km/h (3 Bft) 100,00 %
18.02.2019 15:30 16,5 C 20,0 C 14,4 C 48 % 1013,3 hPa 0,0 l/m 2 min 0 min 332 W/m 12,9 km/h (3 Bft) 100,00 %
18.02.2019 15:32 16,4 C 19,4 C 14,4 C 47 % 1013,2 hPa 0,0 l/m 2 min 0 min 329 W/m 16,1 km/h (3 Bft) 100,00 %
18.02.2019 15:34 16,4 C 19,4 C 14,4 C 47 % 1013,3 hPa 0,0 l/m 2 min 0 min 325 W/m 16,1 km/h (3 Bft) 100,00 %
18.02.2019 15:36 16,4 C 18,9 C 14,4 C 47 % 1013,3 hPa 0,0 l/m 2 min 0 min 316 W/m 19,3 km/h (3 Bft) 100,00 %
18.02.2019 15:38 16,4 C 18,9 C 14,4 C 48 % 1013,3 hPa 0,0 l/m 2 min 0 min 314 W/m 16,1 km/h (3 Bft) 100,00 %
18.02.2019 15:40 16,4 C 18,9 C 14,4 C 48 % 1013,3 hPa 0,0 l/m 2 min 0 min 308 W/m 12,9 km/h (3 Bft) 100,00 %
18.02.2019 15:42 16,4 C 18,9 C 14,4 C 48 % 1013,3 hPa 0,0 l/m 2 min 0 min 305 W/m 12,9 km/h (3 Bft) 100,00 %
18.02.2019 15:44 16,3 C 18,9 C 14,4 C 49 % 1013,3 hPa 0,0 l/m 2 min 0 min 301 W/m 12,9 km/h (3 Bft) 100,00 %
18.02.2019 15:46 16,3 C 18,9 C 13,9 C 50 % 1013,3 hPa 0,0 l/m 2 min 0 min 292 W/m 9,7 km/h (2 Bft) 97,87 %
18.02.2019 15:48 16,3 C 18,9 C 13,9 C 50 % 1013,4 hPa 0,0 l/m 2 min 0 min 264 W/m 16,1 km/h (3 Bft) 97,87 %
18.02.2019 15:50 16,3 C 18,9 C 13,9 C 50 % 1013,3 hPa 0,0 l/m 2 min 0 min 258 W/m 9,7 km/h (2 Bft) 100,00 %
18.02.2019 15:52 16,3 C 18,9 C 14,4 C 50 % 1013,3 hPa 0,0 l/m 2 min 0 min 276 W/m 12,9 km/h (3 Bft) 100,00 %
18.02.2019 15:54 16,3 C 18,9 C 14,4 C 50 % 1013,3 hPa 0,0 l/m 2 min 0 min 276 W/m 16,1 km/h (3 Bft) 100,00 %
18.02.2019 15:56 16,3 C 18,9 C 14,4 C 51 % 1013,2 hPa 0,0 l/m 2 min 0 min 271 W/m 9,7 km/h (2 Bft) 97,87 %
18.02.2019 15:58 16,3 C 18,9 C 14,4 C 51 % 1013,2 hPa 0,0 l/m 2 min 0 min 264 W/m 16,1 km/h (3 Bft) 97,87 %
18.02.2019 16:00 16,3 C 18,9 C 14,4 C 51 % 1013,2 hPa 0,0 l/m 2 min 0 min 252 W/m 12,9 km/h (3 Bft) 97,87 %
18.02.2019 16:02 16,3 C 18,3 C 14,4 C 51 % 1013,2 hPa 0,0 l/m 2 min 0 min 238 W/m 19,3 km/h (3 Bft) 97,87 %
18.02.2019 16:04 16,3 C 18,3 C 13,9 C 52 % 1013,3 hPa 0,0 l/m 2 min 0 min 236 W/m 16,1 km/h (3 Bft) 97,83 %
18.02.2019 16:06 16,3 C 18,3 C 13,9 C 52 % 1013,3 hPa 0,0 l/m 2 min 0 min 232 W/m 9,7 km/h (2 Bft) 95,74 %
18.02.2019 16:08 16,3 C 18,3 C 13,9 C 52 % 1013,2 hPa 0,0 l/m 2 min 0 min 227 W/m 6,4 km/h (2 Bft) 95,74 %
18.02.2019 16:10 16,3 C 18,3 C 13,9 C 52 % 1013,2 hPa 0,0 l/m 2 min 0 min 217 W/m 9,7 km/h (2 Bft) 95,74 %
18.02.2019 16:12 16,3 C 18,3 C 13,9 C 52 % 1013,3 hPa 0,0 l/m 2 min 0 min 220 W/m 16,1 km/h (3 Bft) 93,62 %
18.02.2019 16:14 16,2 C 18,3 C 13,9 C 52 % 1013,2 hPa 0,0 l/m 2 min 0 min 204 W/m 12,9 km/h (3 Bft) 93,62 %
18.02.2019 16:16 16,2 C 17,8 C 13,9 C 52 % 1013,2 hPa 0,0 l/m 2 min 0 min 197 W/m 12,9 km/h (3 Bft) 97,83 %
18.02.2019 16:18 16,2 C 17,8 C 13,9 C 52 % 1013,2 hPa 0,0 l/m 2 min 0 min 192 W/m 9,7 km/h (2 Bft) 95,74 %
18.02.2019 16:20 16,2 C 17,2 C 13,9 C 53 % 1013,2 hPa 0,0 l/m 2 min 0 min 177 W/m 9,7 km/h (2 Bft) 95,74 %
18.02.2019 16:22 16,2 C 16,1 C 13,9 C 53 % 1013,1 hPa 0,0 l/m 2 min 0 min 172 W/m 6,4 km/h (2 Bft) 93,75 %
18.02.2019 16:24 16,1 C 15,6 C 13,9 C 54 % 1013,1 hPa 0,0 l/m 2 min 0 min 151 W/m 9,7 km/h (2 Bft) 91,49 %
18.02.2019 16:26 16,1 C 15,0 C 13,9 C 54 % 1013,1 hPa 0,0 l/m 2 min 0 min 135 W/m 12,9 km/h (3 Bft) 93,62 %
18.02.2019 16:28 16,1 C 15,0 C 13,9 C 55 % 1013,1 hPa 0,0 l/m 2 min 0 min 137 W/m 12,9 km/h (3 Bft) 93,48 %
18.02.2019 16:30 16,0 C 15,0 C 13,9 C 55 % 1013,1 hPa 0,0 l/m 0 min 0 min 81 W/m 6,4 km/h (2 Bft) 93,62 %
18.02.2019 16:32 15,9 C 15,0 C 13,9 C 55 % 1013,2 hPa 0,0 l/m 0 min 0 min 50 W/m 12,9 km/h (3 Bft) 91,49 %
18.02.2019 16:34 15,9 C 15,0 C 13,9 C 55 % 1013,1 hPa 0,0 l/m 0 min 0 min 48 W/m 9,7 km/h (2 Bft) 93,62 %
18.02.2019 16:36 15,8 C 14,4 C 13,3 C 55 % 1013,0 hPa 0,0 l/m 0 min 0 min 46 W/m 9,7 km/h (2 Bft) 93,62 %
18.02.2019 16:38 15,8 C 14,4 C 13,3 C 55 % 1013,0 hPa 0,0 l/m 0 min 0 min 45 W/m 6,4 km/h (2 Bft) 93,62 %
18.02.2019 16:40 15,7 C 14,4 C 13,3 C 55 % 1013,0 hPa 0,0 l/m 0 min 0 min 44 W/m 6,4 km/h (2 Bft) 93,48 %
18.02.2019 16:42 15,7 C 14,4 C 13,3 C 55 % 1013,1 hPa 0,0 l/m 0 min 0 min 43 W/m 9,7 km/h (2 Bft) 91,49 %
18.02.2019 16:44 15,6 C 14,4 C 13,3 C 55 % 1013,0 hPa 0,0 l/m 0 min 0 min 41 W/m 9,7 km/h (2 Bft) 93,62 %
18.02.2019 16:46 15,6 C 14,4 C 13,3 C 56 % 1012,9 hPa 0,0 l/m 0 min 0 min 39 W/m 6,4 km/h (2 Bft) 93,62 %
18.02.2019 16:48 15,6 C 14,4 C 12,8 C 56 % 1013,0 hPa 0,0 l/m 0 min 0 min 39 W/m 6,4 km/h (2 Bft) 95,74 %
18.02.2019 16:50 15,5 C 14,4 C 12,8 C 56 % 1012,9 hPa 0,0 l/m 0 min 0 min 38 W/m 9,7 km/h (2 Bft) 95,65 %
18.02.2019 16:52 15,5 C 14,4 C 12,8 C 55 % 1013,0 hPa 0,0 l/m 0 min 0 min 35 W/m 6,4 km/h (2 Bft) 95,74 %
18.02.2019 16:54 15,4 C 14,4 C 12,8 C 55 % 1012,9 hPa 0,0 l/m 0 min 0 min 35 W/m 6,4 km/h (2 Bft) 97,87 %
18.02.2019 16:56 15,4 C 14,4 C 12,8 C 55 % 1013,0 hPa 0,0 l/m 0 min 0 min 35 W/m 9,7 km/h (2 Bft) 95,74 %
18.02.2019 16:58 15,4 C 14,4 C 12,2 C 55 % 1013,0 hPa 0,0 l/m 0 min 0 min 33 W/m 9,7 km/h (2 Bft) 95,74 %
18.02.2019 17:00 15,3 C 14,4 C 12,2 C 55 % 1013,0 hPa 0,0 l/m 0 min 0 min 31 W/m 6,4 km/h (2 Bft) 97,87 %
18.02.2019 17:02 15,3 C 14,4 C 12,2 C 56 % 1012,9 hPa 0,0 l/m 0 min 0 min 29 W/m 6,4 km/h (2 Bft) 97,87 %
18.02.2019 17:04 15,3 C 13,9 C 12,2 C 56 % 1012,8 hPa 0,0 l/m 0 min 0 min 26 W/m 9,7 km/h (2 Bft) 95,65 %
18.02.2019 17:06 15,2 C 13,9 C 11,7 C 56 % 1012,8 hPa 0,0 l/m 0 min 0 min 26 W/m 6,4 km/h (2 Bft) 97,87 %
18.02.2019 17:08 15,2 C 13,9 C 12,2 C 56 % 1012,8 hPa 0,0 l/m 0 min 0 min 26 W/m 6,4 km/h (2 Bft) 97,87 %
18.02.2019 17:10 15,2 C 13,9 C 12,2 C 56 % 1012,8 hPa 0,0 l/m 0 min 0 min 26 W/m 9,7 km/h (2 Bft) 97,87 %
18.02.2019 17:12 15,1 C 13,9 C 12,2 C 56 % 1012,8 hPa 0,0 l/m 0 min 0 min 26 W/m 6,4 km/h (2 Bft) 95,74 %
18.02.2019 17:14 15,1 C 13,9 C 12,2 C 56 % 1012,8 hPa 0,0 l/m 0 min 0 min 25 W/m 6,4 km/h (2 Bft) 100,00 %
18.02.2019 17:16 15,1 C 13,9 C 11,7 C 56 % 1012,9 hPa 0,0 l/m 0 min 0 min 23 W/m 6,4 km/h (2 Bft) 100,00 %
18.02.2019 17:18 15,0 C 13,9 C 11,7 C 56 % 1012,9 hPa 0,0 l/m 0 min 0 min 22 W/m 9,7 km/h (2 Bft) 100,00 %
18.02.2019 17:20 14,9 C 13,9 C 12,2 C 55 % 1012,9 hPa 0,0 l/m 0 min 0 min 21 W/m 22,5 km/h (4 Bft) 97,87 %
18.02.2019 17:22 14,8 C 13,9 C 12,2 C 54 % 1012,9 hPa 0,0 l/m 0 min 0 min 21 W/m 16,1 km/h (3 Bft) 95,74 %
18.02.2019 17:24 14,8 C 13,9 C 12,2 C 54 % 1012,9 hPa 0,0 l/m 0 min 0 min 19 W/m 16,1 km/h (3 Bft) 100,00 %
18.02.2019 17:26 14,7 C 13,3 C 12,2 C 54 % 1012,8 hPa 0,0 l/m 0 min 0 min 18 W/m 6,4 km/h (2 Bft) 97,83 %
18.02.2019 17:28 14,7 C 13,3 C 12,2 C 54 % 1012,8 hPa 0,0 l/m 0 min 0 min 16 W/m 16,1 km/h (3 Bft) 100,00 %
18.02.2019 17:30 14,6 C 13,3 C 12,2 C 54 % 1012,9 hPa 0,0 l/m 0 min 0 min 15 W/m 9,7 km/h (2 Bft) 100,00 %
18.02.2019 17:32 14,5 C 13,3 C 12,2 C 53 % 1012,8 hPa 0,0 l/m 0 min 0 min 14 W/m 12,9 km/h (3 Bft) 97,87 %
18.02.2019 17:34 14,4 C 12,8 C 12,2 C 53 % 1012,8 hPa 0,0 l/m 0 min 0 min 14 W/m 9,7 km/h (2 Bft) 100,00 %
18.02.2019 17:36 14,4 C 12,8 C 12,2 C 54 % 1012,8 hPa 0,0 l/m 0 min 0 min 13 W/m 9,7 km/h (2 Bft) 100,00 %
18.02.2019 17:38 14,3 C 12,8 C 11,7 C 53 % 1012,8 hPa 0,0 l/m 0 min 0 min 12 W/m 9,7 km/h (2 Bft) 100,00 %
18.02.2019 17:40 14,2 C 12,8 C 11,7 C 53 % 1012,8 hPa 0,0 l/m 0 min 0 min 12 W/m 12,9 km/h (3 Bft) 100,00 %
18.02.2019 17:42 14,2 C 12,8 C 11,7 C 53 % 1012,8 hPa 0,0 l/m 0 min 0 min 11 W/m 16,1 km/h (3 Bft) 100,00 %
18.02.2019 17:44 14,1 C 12,8 C 11,7 C 53 % 1012,8 hPa 0,0 l/m 0 min 0 min 10 W/m 12,9 km/h (3 Bft) 97,87 %
18.02.2019 17:46 14,0 C 12,2 C 11,7 C 54 % 1012,8 hPa 0,0 l/m 0 min 0 min 9 W/m 9,7 km/h (2 Bft) 100,00 %
18.02.2019 17:48 13,9 C 12,2 C 11,7 C 54 % 1012,8 hPa 0,0 l/m 0 min 0 min 7 W/m 9,7 km/h (2 Bft) 100,00 %
18.02.2019 17:50 13,8 C 12,2 C 11,7 C 54 % 1012,8 hPa 0,0 l/m 0 min 0 min 5 W/m 9,7 km/h (2 Bft) 100,00 %
18.02.2019 17:52 13,8 C 12,2 C 11,1 C 54 % 1012,8 hPa 0,0 l/m 0 min 0 min 5 W/m 6,4 km/h (2 Bft) 100,00 %
18.02.2019 17:54 13,7 C 12,2 C 11,1 C 55 % 1012,8 hPa 0,0 l/m 0 min 0 min 4 W/m 9,7 km/h (2 Bft) 100,00 %
18.02.2019 17:56 13,6 C 11,7 C 10,6 C 55 % 1012,9 hPa 0,0 l/m 0 min 0 min 0 W/m 6,4 km/h (2 Bft) 100,00 %
18.02.2019 17:58 13,6 C 11,7 C 10,6 C 56 % 1012,9 hPa 0,0 l/m 0 min 0 min 0 W/m 6,4 km/h (2 Bft) 97,87 %
18.02.2019 18:00 13,5 C 11,7 C 10,6 C 56 % 1012,8 hPa 0,0 l/m 0 min 0 min 0 W/m 6,4 km/h (2 Bft) 100,00 %
18.02.2019 18:02 13,4 C 11,7 C 10,6 C 56 % 1012,8 hPa 0,0 l/m 0 min 0 min 0 W/m 9,7 km/h (2 Bft) 100,00 %
18.02.2019 18:04 13,4 C 11,7 C 10,6 C 56 % 1012,9 hPa 0,0 l/m 0 min 0 min 0 W/m 9,7 km/h (2 Bft) 100,00 %
18.02.2019 18:08 13,2 C 11,1 C 10,0 C 57 % 1012,8 hPa 0,0 l/m 0 min 0 min 0 W/m 9,7 km/h (2 Bft) 98,92 %
18.02.2019 18:10 13,1 C 11,1 C 10,0 C 57 % 1012,8 hPa 0,0 l/m 0 min 0 min 0 W/m 9,7 km/h (2 Bft) 100,00 %
18.02.2019 18:12 13,1 C 11,1 C 10,0 C 58 % 1012,8 hPa 0,0 l/m 0 min 0 min 0 W/m 9,7 km/h (2 Bft) 100,00 %
18.02.2019 18:14 12,9 C 11,1 C 10,0 C 58 % 1012,8 hPa 0,0 l/m 0 min 0 min 0 W/m 6,4 km/h (2 Bft) 97,87 %
18.02.2019 18:16 12,9 C 10,6 C 10,0 C 58 % 1012,8 hPa 0,0 l/m 0 min 0 min 0 W/m 6,4 km/h (2 Bft) 97,83 %
18.02.2019 18:18 12,8 C 10,6 C 9,4 C 58 % 1012,9 hPa 0,0 l/m 0 min 0 min 0 W/m 9,7 km/h (2 Bft) 100,00 %
18.02.2019 18:20 12,7 C 10,6 C 10,0 C 58 % 1012,8 hPa 0,0 l/m 0 min 0 min 0 W/m 9,7 km/h (2 Bft) 100,00 %
18.02.2019 18:22 12,6 C 10,6 C 10,0 C 58 % 1012,9 hPa 0,0 l/m 0 min 0 min 0 W/m 9,7 km/h (2 Bft) 97,87 %
18.02.2019 18:24 12,5 C 10,6 C 10,0 C 59 % 1012,9 hPa 0,0 l/m 0 min 0 min 0 W/m 9,7 km/h (2 Bft) 97,87 %
18.02.2019 18:26 12,4 C 10,6 C 10,0 C 59 % 1012,9 hPa 0,0 l/m 0 min 0 min 0 W/m 9,7 km/h (2 Bft) 95,74 %
18.02.2019 18:28 12,3 C 10,6 C 9,4 C 59 % 1013,0 hPa 0,0 l/m 0 min 0 min 0 W/m 9,7 km/h (2 Bft) 97,83 %
18.02.2019 18:30 12,3 C 10,6 C 9,4 C 60 % 1013,0 hPa 0,0 l/m 0 min 0 min 0 W/m 9,7 km/h (2 Bft) 95,74 %
18.02.2019 18:32 12,2 C 10,6 C 9,4 C 60 % 1013,0 hPa 0,0 l/m 0 min 0 min 0 W/m 6,4 km/h (2 Bft) 97,87 %
18.02.2019 18:34 12,2 C 10,6 C 9,4 C 60 % 1013,1 hPa 0,0 l/m 0 min 0 min 0 W/m 6,4 km/h (2 Bft) 97,87 %
18.02.2019 18:36 12,1 C 10,6 C 9,4 C 60 % 1013,1 hPa 0,0 l/m 0 min 0 min 0 W/m 9,7 km/h (2 Bft) 97,87 %
18.02.2019 18:38 12,0 C 10,6 C 9,4 C 60 % 1013,0 hPa 0,0 l/m 0 min 0 min 0 W/m 9,7 km/h (2 Bft) 97,87 %
18.02.2019 18:40 11,9 C 10,6 C 9,4 C 61 % 1013,1 hPa 0,0 l/m 0 min 0 min 0 W/m 9,7 km/h (2 Bft) 100,00 %
18.02.2019 18:42 11,9 C 10,0 C 8,9 C 61 % 1013,0 hPa 0,0 l/m 0 min 0 min 0 W/m 9,7 km/h (2 Bft) 95,74 %
18.02.2019 18:44 11,8 C 10,0 C 8,9 C 61 % 1013,1 hPa 0,0 l/m 0 min 0 min 0 W/m 9,7 km/h (2 Bft) 93,62 %
18.02.2019 18:46 11,7 C 10,0 C 8,9 C 61 % 1013,1 hPa 0,0 l/m 0 min 0 min 0 W/m 12,9 km/h (3 Bft) 97,87 %
18.02.2019 18:48 11,7 C 10,0 C 8,9 C 62 % 1013,1 hPa 0,0 l/m 0 min 0 min 0 W/m 6,4 km/h (2 Bft) 97,87 %
18.02.2019 18:50 11,6 C 10,0 C 8,9 C 62 % 1013,1 hPa 0,0 l/m 0 min 0 min 0 W/m 9,7 km/h (2 Bft) 97,87 %
18.02.2019 18:52 11,6 C 10,0 C 8,9 C 62 % 1013,1 hPa 0,0 l/m 0 min 0 min 0 W/m 9,7 km/h (2 Bft) 97,83 %
18.02.2019 18:54 11,5 C 10,0 C 8,9 C 63 % 1013,2 hPa 0,0 l/m 0 min 0 min 0 W/m 6,4 km/h (2 Bft) 97,87 %
18.02.2019 18:56 11,4 C 10,0 C 8,9 C 63 % 1013,1 hPa 0,0 l/m 0 min 0 min 0 W/m 6,4 km/h (2 Bft) 95,74 %
18.02.2019 18:58 11,4 C 10,0 C 8,3 C 63 % 1013,1 hPa 0,0 l/m 0 min 0 min 0 W/m 6,4 km/h (2 Bft) 95,74 %
18.02.2019 19:00 11,3 C 9,4 C 7,8 C 63 % 1013,2 hPa 0,0 l/m 0 min 0 min 0 W/m 3,2 km/h (1 Bft) 100,00 %
18.02.2019 19:02 11,3 C 9,4 C 7,8 C 64 % 1013,2 hPa 0,0 l/m 0 min 0 min 0 W/m 3,2 km/h (1 Bft) 100,00 %
18.02.2019 19:04 11,2 C 9,4 C 7,2 C 64 % 1013,3 hPa 0,0 l/m 0 min 0 min 0 W/m 3,2 km/h (1 Bft) 97,83 %
18.02.2019 19:06 11,2 C 9,4 C 7,2 C 64 % 1013,2 hPa 0,0 l/m 0 min 0 min 0 W/m 3,2 km/h (1 Bft) 97,87 %
18.02.2019 19:08 11,1 C 9,4 C 6,7 C 64 % 1013,3 hPa 0,0 l/m 0 min 0 min 0 W/m 3,2 km/h (1 Bft) 95,74 %
18.02.2019 19:10 11,1 C 9,4 C 6,7 C 64 % 1013,2 hPa 0,0 l/m 0 min 0 min 0 W/m 6,4 km/h (2 Bft) 95,74 %
18.02.2019 19:12 11,0 C 8,9 C 6,7 C 64 % 1013,3 hPa 0,0 l/m 0 min 0 min 0 W/m 6,4 km/h (2 Bft) 97,87 %
18.02.2019 19:14 10,9 C 9,4 C 6,7 C 65 % 1013,3 hPa 0,0 l/m 0 min 0 min 0 W/m 6,4 km/h (2 Bft) 97,87 %
18.02.2019 19:16 10,8 C 9,4 C 6,7 C 65 % 1013,3 hPa 0,0 l/m 0 min 0 min 0 W/m 6,4 km/h (2 Bft) 97,83 %
18.02.2019 19:18 10,8 C 9,4 C 6,7 C 65 % 1013,3 hPa 0,0 l/m 0 min 0 min 0 W/m 9,7 km/h (2 Bft) 93,62 %
18.02.2019 19:20 10,8 C 9,4 C 6,7 C 65 % 1013,3 hPa 0,0 l/m 0 min 0 min 0 W/m 6,4 km/h (2 Bft) 97,87 %
18.02.2019 19:22 10,7 C 9,4 C 6,7 C 65 % 1013,3 hPa 0,0 l/m 0 min 0 min 0 W/m 6,4 km/h (2 Bft) 97,87 %
18.02.2019 19:24 10,7 C 9,4 C 6,7 C 65 % 1013,3 hPa 0,0 l/m 0 min 0 min 0 W/m 6,4 km/h (2 Bft) 95,74 %
18.02.2019 19:26 10,6 C 9,4 C 7,2 C 65 % 1013,4 hPa 0,0 l/m 0 min 0 min 0 W/m 6,4 km/h (2 Bft) 97,83 %
18.02.2019 19:28 10,6 C 9,4 C 7,2 C 65 % 1013,3 hPa 0,0 l/m 0 min 0 min 0 W/m 6,4 km/h (2 Bft) 95,74 %
18.02.2019 19:30 10,5 C 9,4 C 7,2 C 66 % 1013,3 hPa 0,0 l/m 0 min 0 min 0 W/m 6,4 km/h (2 Bft) 93,62 %
18.02.2019 19:32 10,4 C 9,4 C 6,7 C 66 % 1013,3 hPa 0,0 l/m 0 min 0 min 0 W/m 6,4 km/h (2 Bft) 97,87 %
18.02.2019 19:34 10,4 C 9,4 C 6,7 C 66 % 1013,4 hPa 0,0 l/m 0 min 0 min 0 W/m 6,4 km/h (2 Bft) 95,74 %
18.02.2019 19:36 10,4 C 8,9 C 6,1 C 66 % 1013,4 hPa 0,0 l/m 0 min 0 min 0 W/m 6,4 km/h (2 Bft) 97,87 %
18.02.2019 19:38 10,3 C 8,9 C 6,1 C 66 % 1013,3 hPa 0,0 l/m 0 min 0 min 0 W/m 6,4 km/h (2 Bft) 97,83 %
18.02.2019 19:40 10,3 C 8,9 C 6,1 C 66 % 1013,4 hPa 0,0 l/m 0 min 0 min 0 W/m 3,2 km/h (1 Bft) 97,87 %
18.02.2019 19:42 10,3 C 8,9 C 5,6 C 66 % 1013,3 hPa 0,0 l/m 0 min 0 min 0 W/m 0,0 km/h (0 Bft) 95,74 %
18.02.2019 19:44 10,3 C 8,9 C 5,6 C 66 % 1013,3 hPa 0,0 l/m 0 min 0 min 0 W/m 6,4 km/h (2 Bft) 97,87 %
18.02.2019 19:46 10,2 C 8,3 C 5,6 C 67 % 1013,3 hPa 0,0 l/m 0 min 0 min 0 W/m 3,2 km/h (1 Bft) 97,87 %
18.02.2019 19:48 10,2 C 8,3 C 5,6 C 67 % 1013,3 hPa 0,0 l/m 0 min 0 min 0 W/m 3,2 km/h (1 Bft) 97,87 %
18.02.2019 19:50 10,1 C 8,9 C 5,6 C 67 % 1013,3 hPa 0,0 l/m 0 min 0 min 0 W/m 6,4 km/h (2 Bft) 97,83 %
18.02.2019 19:52 10,1 C 8,9 C 5,0 C 67 % 1013,3 hPa 0,0 l/m 0 min 0 min 0 W/m 3,2 km/h (1 Bft) 93,62 %
18.02.2019 19:54 10,1 C 8,9 C 5,0 C 67 % 1013,4 hPa 0,0 l/m 0 min 0 min 0 W/m 6,4 km/h (2 Bft) 97,87 %
18.02.2019 19:56 10,0 C 8,9 C 5,0 C 67 % 1013,3 hPa 0,0 l/m 0 min 0 min 0 W/m 12,9 km/h (3 Bft) 97,87 %
18.02.2019 19:58 10,0 C 8,9 C 6,1 C 68 % 1013,4 hPa 0,0 l/m 0 min 0 min 0 W/m 6,4 km/h (2 Bft) 97,87 %
18.02.2019 20:00 9,9 C 8,9 C 6,1 C 68 % 1013,4 hPa 0,0 l/m 0 min 0 min 0 W/m 6,4 km/h (2 Bft) 97,87 %
18.02.2019 20:02 9,9 C 8,9 C 6,7 C 68 % 1013,4 hPa 0,0 l/m 0 min 0 min 0 W/m 6,4 km/h (2 Bft) 95,65 %
18.02.2019 20:04 9,9 C 9,4 C 7,2 C 68 % 1013,4 hPa 0,0 l/m 0 min 0 min 0 W/m 12,9 km/h (3 Bft) 97,87 %
18.02.2019 20:06 9,8 C 9,4 C 7,8 C 68 % 1013,4 hPa 0,0 l/m 0 min 0 min 0 W/m 9,7 km/h (2 Bft) 100,00 %
18.02.2019 20:08 9,8 C 9,4 C 8,3 C 68 % 1013,3 hPa 0,0 l/m 0 min 0 min 0 W/m 9,7 km/h (2 Bft) 100,00 %
18.02.2019 20:10 9,8 C 9,4 C 8,3 C 68 % 1013,3 hPa 0,0 l/m 0 min 0 min 0 W/m 9,7 km/h (2 Bft) 97,87 %
18.02.2019 20:12 9,8 C 9,4 C 8,3 C 68 % 1013,4 hPa 0,0 l/m 0 min 0 min 0 W/m 9,7 km/h (2 Bft) 95,74 %
18.02.2019 20:14 9,8 C 9,4 C 8,3 C 68 % 1013,3 hPa 0,0 l/m 0 min 0 min 0 W/m 9,7 km/h (2 Bft) 97,83 %
18.02.2019 20:16 9,8 C 9,4 C 8,3 C 68 % 1013,4 hPa 0,0 l/m 0 min 0 min 0 W/m 12,9 km/h (3 Bft) 97,87 %
18.02.2019 20:18 9,8 C 9,4 C 8,3 C 68 % 1013,4 hPa 0,0 l/m 0 min 0 min 0 W/m 12,9 km/h (3 Bft) 97,87 %
18.02.2019 20:20 9,9 C 9,4 C 8,9 C 68 % 1013,4 hPa 0,0 l/m 0 min 0 min 0 W/m 19,3 km/h (3 Bft) 97,87 %
18.02.2019 20:22 9,9 C 9,4 C 8,9 C 68 % 1013,5 hPa 0,0 l/m 0 min 0 min 0 W/m 9,7 km/h (2 Bft) 95,74 %
18.02.2019 20:24 9,9 C 9,4 C 8,9 C 68 % 1013,4 hPa 0,0 l/m 0 min 0 min 0 W/m 22,5 km/h (4 Bft) 95,74 %
18.02.2019 20:26 9,9 C 9,4 C 8,9 C 68 % 1013,5 hPa 0,0 l/m 0 min 0 min 0 W/m 12,9 km/h (3 Bft) 95,65 %
18.02.2019 20:28 9,9 C 9,4 C 8,9 C 68 % 1013,6 hPa 0,0 l/m 0 min 0 min 0 W/m 12,9 km/h (3 Bft) 95,74 %
18.02.2019 20:30 9,9 C 9,4 C 8,9 C 68 % 1013,6 hPa 0,0 l/m 0 min 0 min 0 W/m 16,1 km/h (3 Bft) 95,74 %
18.02.2019 20:32 9,9 C 9,4 C 8,9 C 68 % 1013,6 hPa 0,0 l/m 0 min 0 min 0 W/m 16,1 km/h (3 Bft) 95,74 %
18.02.2019 20:34 9,9 C 9,4 C 8,9 C 68 % 1013,5 hPa 0,0 l/m 0 min 0 min 0 W/m 16,1 km/h (3 Bft) 95,74 %
18.02.2019 20:36 9,9 C 9,4 C 8,9 C 68 % 1013,5 hPa 0,0 l/m 0 min 0 min 0 W/m 16,1 km/h (3 Bft) 95,74 %
18.02.2019 20:38 9,9 C 9,4 C 8,9 C 68 % 1013,6 hPa 0,0 l/m 0 min 0 min 0 W/m 16,1 km/h (3 Bft) 90,70 %
18.02.2019 20:40 10,0 C 9,4 C 8,9 C 68 % 1013,6 hPa 0,0 l/m 0 min 0 min 0 W/m 12,9 km/h (3 Bft) 95,74 %
18.02.2019 20:42 10,0 C 9,4 C 8,9 C 68 % 1013,6 hPa 0,0 l/m 0 min 0 min 0 W/m 12,9 km/h (3 Bft) 97,87 %
18.02.2019 20:44 10,0 C 9,4 C 8,9 C 67 % 1013,6 hPa 0,0 l/m 0 min 0 min 0 W/m 12,9 km/h (3 Bft) 89,36 %
18.02.2019 20:46 10,0 C 9,4 C 8,9 C 67 % 1013,6 hPa 0,0 l/m 0 min 0 min 0 W/m 12,9 km/h (3 Bft) 93,48 %
18.02.2019 20:48 10,0 C 9,4 C 8,9 C 67 % 1013,6 hPa 0,0 l/m 0 min 0 min 0 W/m 9,7 km/h (2 Bft) 95,74 %
18.02.2019 20:50 10,0 C 9,4 C 8,9 C 67 % 1013,6 hPa 0,0 l/m 0 min 0 min 0 W/m 12,9 km/h (3 Bft) 95,74 %
18.02.2019 20:52 10,0 C 9,4 C 8,9 C 67 % 1013,6 hPa 0,0 l/m 0 min 0 min 0 W/m 9,7 km/h (2 Bft) 95,74 %
18.02.2019 20:54 9,9 C 9,4 C 8,9 C 67 % 1013,6 hPa 0,0 l/m 0 min 0 min 0 W/m 9,7 km/h (2 Bft) 95,74 %
18.02.2019 20:56 9,9 C 8,9 C 8,9 C 68 % 1013,6 hPa 0,0 l/m 0 min 0 min 0 W/m 9,7 km/h (2 Bft) 95,74 %
18.02.2019 20:58 9,9 C 9,4 C 8,3 C 68 % 1013,6 hPa 0,0 l/m 0 min 0 min 0 W/m 9,7 km/h (2 Bft) 95,65 %
18.02.2019 21:00 9,9 C 9,4 C 8,3 C 68 % 1013,6 hPa 0,0 l/m 0 min 0 min 0 W/m 9,7 km/h (2 Bft) 95,74 %
18.02.2019 21:02 9,9 C 9,4 C 8,3 C 68 % 1013,6 hPa 0,0 l/m 0 min 0 min 0 W/m 12,9 km/h (3 Bft) 95,74 %
18.02.2019 21:04 9,9 C 8,9 C 8,3 C 68 % 1013,6 hPa 0,0 l/m 0 min 0 min 0 W/m 6,4 km/h (2 Bft) 97,87 %
18.02.2019 21:06 9,9 C 8,9 C 8,3 C 68 % 1013,6 hPa 0,0 l/m 0 min 0 min 0 W/m 9,7 km/h (2 Bft) 95,74 %
18.02.2019 21:08 9,9 C 8,9 C 8,3 C 68 % 1013,6 hPa 0,0 l/m 0 min 0 min 0 W/m 6,4 km/h (2 Bft) 97,83 %
18.02.2019 21:10 9,8 C 8,9 C 7,8 C 68 % 1013,5 hPa 0,0 l/m 0 min 0 min 0 W/m 6,4 km/h (2 Bft) 97,87 %
18.02.2019 21:12 9,8 C 8,9 C 7,8 C 68 % 1013,6 hPa 0,0 l/m 0 min 0 min 0 W/m 6,4 km/h (2 Bft) 97,87 %
18.02.2019 21:14 9,8 C 8,3 C 7,8 C 68 % 1013,7 hPa 0,0 l/m 0 min 0 min 0 W/m 9,7 km/h (2 Bft) 95,74 %
18.02.2019 21:16 9,8 C 8,3 C 7,8 C 68 % 1013,6 hPa 0,0 l/m 0 min 0 min 0 W/m 6,4 km/h (2 Bft) 97,87 %
18.02.2019 21:18 9,7 C 8,3 C 7,2 C 68 % 1013,6 hPa 0,0 l/m 0 min 0 min 0 W/m 6,4 km/h (2 Bft) 97,87 %
18.02.2019 21:20 9,7 C 8,3 C 7,8 C 68 % 1013,5 hPa 0,0 l/m 0 min 0 min 0 W/m 9,7 km/h (2 Bft) 97,83 %
18.02.2019 21:22 9,7 C 8,3 C 7,2 C 68 % 1013,6 hPa 0,0 l/m 0 min 0 min 0 W/m 6,4 km/h (2 Bft) 97,87 %
18.02.2019 21:24 9,6 C 8,3 C 7,2 C 68 % 1013,6 hPa 0,0 l/m 0 min 0 min 0 W/m 6,4 km/h (2 Bft) 95,74 %
18.02.2019 21:26 9,6 C 8,3 C 7,2 C 68 % 1013,6 hPa 0,0 l/m 0 min 0 min 0 W/m 12,9 km/h (3 Bft) 97,87 %
18.02.2019 21:28 9,6 C 8,3 C 7,2 C 69 % 1013,6 hPa 0,0 l/m 0 min 0 min 0 W/m 9,7 km/h (2 Bft) 100,00 %
18.02.2019 21:30 9,6 C 8,3 C 7,2 C 69 % 1013,6 hPa 0,0 l/m 0 min 0 min 0 W/m 3,2 km/h (1 Bft) 100,00 %
18.02.2019 21:32 9,5 C 8,3 C 6,7 C 69 % 1013,6 hPa 0,0 l/m 0 min 0 min 0 W/m 6,4 km/h (2 Bft) 100,00 %
18.02.2019 21:34 9,4 C 8,3 C 7,2 C 69 % 1013,7 hPa 0,0 l/m 0 min 0 min 0 W/m 6,4 km/h (2 Bft) 97,87 %
18.02.2019 21:36 9,4 C 8,3 C 7,2 C 69 % 1013,6 hPa 0,0 l/m 0 min 0 min 0 W/m 9,7 km/h (2 Bft) 100,00 %
18.02.2019 21:38 9,4 C 8,3 C 7,2 C 69 % 1013,7 hPa 0,0 l/m 0 min 0 min 0 W/m 6,4 km/h (2 Bft) 97,14 %
18.02.2019 21:40 9,3 C 8,3 C 7,2 C 69 % 1013,7 hPa 0,0 l/m 0 min 0 min 0 W/m 9,7 km/h (2 Bft) 100,00 %
18.02.2019 21:42 9,3 C 8,3 C 7,2 C 69 % 1013,7 hPa 0,0 l/m 0 min 0 min 0 W/m 6,4 km/h (2 Bft) 100,00 %
18.02.2019 21:44 9,2 C 7,8 C 7,2 C 70 % 1013,7 hPa 0,0 l/m 0 min 0 min 0 W/m 6,4 km/h (2 Bft) 97,83 %
18.02.2019 21:46 9,2 C 7,8 C 7,2 C 70 % 1013,7 hPa 0,0 l/m 0 min 0 min 0 W/m 6,4 km/h (2 Bft) 97,87 %
18.02.2019 21:48 9,2 C 7,8 C 7,2 C 70 % 1013,6 hPa 0,0 l/m 0 min 0 min 0 W/m 6,4 km/h (2 Bft) 100,00 %
18.02.2019 21:50 9,1 C 7,8 C 7,2 C 70 % 1013,6 hPa 0,0 l/m 0 min 0 min 0 W/m 6,4 km/h (2 Bft) 100,00 %
18.02.2019 21:52 9,1 C 7,8 C 7,2 C 70 % 1013,7 hPa 0,0 l/m 0 min 0 min 0 W/m 9,7 km/h (2 Bft) 100,00 %
18.02.2019 21:54 9,0 C 7,8 C 7,2 C 70 % 1013,7 hPa 0,0 l/m 0 min 0 min 0 W/m 6,4 km/h (2 Bft) 95,74 %
18.02.2019 21:56 9,0 C 7,8 C 7,2 C 70 % 1013,7 hPa 0,0 l/m 0 min 0 min 0 W/m 6,4 km/h (2 Bft) 100,00 %
18.02.2019 21:58 8,9 C 7,8 C 7,2 C 70 % 1013,7 hPa 0,0 l/m 0 min 0 min 0 W/m 6,4 km/h (2 Bft) 97,87 %
18.02.2019 22:00 8,9 C 7,8 C 7,2 C 70 % 1013,6 hPa 0,0 l/m 0 min 0 min 0 W/m 6,4 km/h (2 Bft) 100,00 %
18.02.2019 22:02 8,9 C 7,8 C 6,7 C 71 % 1013,7 hPa 0,0 l/m 0 min 0 min 0 W/m 6,4 km/h (2 Bft) 97,87 %
18.02.2019 22:04 8,8 C 7,8 C 6,7 C 71 % 1013,6 hPa 0,0 l/m 0 min 0 min 0 W/m 6,4 km/h (2 Bft) 100,00 %
18.02.2019 22:06 8,8 C 7,8 C 6,7 C 71 % 1013,7 hPa 0,0 l/m 0 min 0 min 0 W/m 6,4 km/h (2 Bft) 100,00 %
18.02.2019 22:08 8,8 C 7,2 C 6,7 C 71 % 1013,7 hPa 0,0 l/m 0 min 0 min 0 W/m 6,4 km/h (2 Bft) 100,00 %
18.02.2019 22:10 8,7 C 7,2 C 6,1 C 71 % 1013,7 hPa 0,0 l/m 0 min 0 min 0 W/m 6,4 km/h (2 Bft) 95,74 %
18.02.2019 22:12 8,7 C 7,2 C 6,1 C 71 % 1013,7 hPa 0,0 l/m 0 min 0 min 0 W/m 6,4 km/h (2 Bft) 93,62 %
18.02.2019 22:14 8,7 C 7,2 C 6,1 C 71 % 1013,7 hPa 0,0 l/m 0 min 0 min 0 W/m 9,7 km/h (2 Bft) 97,87 %
18.02.2019 22:16 8,7 C 7,2 C 6,1 C 71 % 1013,7 hPa 0,0 l/m 0 min 0 min 0 W/m 6,4 km/h (2 Bft) 97,87 %
18.02.2019 22:18 8,6 C 7,2 C 6,1 C 71 % 1013,7 hPa 0,0 l/m 0 min 0 min 0 W/m 6,4 km/h (2 Bft) 97,83 %
18.02.2019 22:20 8,6 C 7,2 C 5,6 C 72 % 1013,6 hPa 0,0 l/m 0 min 0 min 0 W/m 6,4 km/h (2 Bft) 95,74 %
18.02.2019 22:22 8,5 C 7,2 C 5,6 C 72 % 1013,6 hPa 0,0 l/m 0 min 0 min 0 W/m 6,4 km/h (2 Bft) 95,74 %
18.02.2019 22:24 8,5 C 7,2 C 5,6 C 72 % 1013,7 hPa 0,0 l/m 0 min 0 min 0 W/m 6,4 km/h (2 Bft) 95,74 %
18.02.2019 22:26 8,4 C 7,2 C 5,6 C 72 % 1013,7 hPa 0,0 l/m 0 min 0 min 0 W/m 3,2 km/h (1 Bft) 97,87 %
18.02.2019 22:28 8,4 C 7,2 C 5,0 C 72 % 1013,6 hPa 0,0 l/m 0 min 0 min 0 W/m 3,2 km/h (1 Bft) 97,87 %
18.02.2019 22:30 8,4 C 7,2 C 5,0 C 72 % 1013,6 hPa 0,0 l/m 0 min 0 min 0 W/m 6,4 km/h (2 Bft) 95,65 %
18.02.2019 22:32 8,3 C 7,2 C 5,0 C 72 % 1013,6 hPa 0,0 l/m 0 min 0 min 0 W/m 6,4 km/h (2 Bft) 95,83 %
18.02.2019 22:34 8,3 C 6,7 C 4,4 C 72 % 1013,6 hPa 0,0 l/m 0 min 0 min 0 W/m 3,2 km/h (1 Bft) 97,87 %
18.02.2019 22:36 8,3 C 6,7 C 4,4 C 72 % 1013,6 hPa 0,0 l/m 0 min 0 min 0 W/m 3,2 km/h (1 Bft) 95,74 %
18.02.2019 22:38 8,2 C 6,7 C 4,4 C 72 % 1013,6 hPa 0,0 l/m 0 min 0 min 0 W/m 6,4 km/h (2 Bft) 95,74 %
18.02.2019 22:40 8,2 C 6,7 C 5,0 C 72 % 1013,6 hPa 0,0 l/m 0 min 0 min 0 W/m 9,7 km/h (2 Bft) 95,74 %
18.02.2019 22:42 8,1 C 6,7 C 5,0 C 72 % 1013,6 hPa 0,0 l/m 0 min 0 min 0 W/m 6,4 km/h (2 Bft) 95,65 %
18.02.2019 22:44 8,1 C 6,7 C 5,0 C 73 % 1013,6 hPa 0,0 l/m 0 min 0 min 0 W/m 6,4 km/h (2 Bft) 95,74 %
18.02.2019 22:46 8,1 C 6,7 C 4,4 C 73 % 1013,6 hPa 0,0 l/m 0 min 0 min 0 W/m 3,2 km/h (1 Bft) 95,74 %
18.02.2019 22:48 8,0 C 6,7 C 4,4 C 73 % 1013,6 hPa 0,0 l/m 0 min 0 min 0 W/m 3,2 km/h (1 Bft) 95,74 %
18.02.2019 22:50 8,0 C 6,7 C 4,4 C 73 % 1013,6 hPa 0,0 l/m 0 min 0 min 0 W/m 6,4 km/h (2 Bft) 95,74 %
18.02.2019 22:52 7,9 C 6,7 C 4,4 C 73 % 1013,6 hPa 0,0 l/m 0 min 0 min 0 W/m 3,2 km/h (1 Bft) 95,74 %
18.02.2019 22:54 7,9 C 6,7 C 4,4 C 73 % 1013,5 hPa 0,0 l/m 0 min 0 min 0 W/m 3,2 km/h (1 Bft) 93,48 %
18.02.2019 22:56 7,9 C 6,7 C 4,4 C 73 % 1013,5 hPa 0,0 l/m 0 min 0 min 0 W/m 3,2 km/h (1 Bft) 93,62 %
18.02.2019 22:58 7,8 C 6,7 C 3,9 C 73 % 1013,6 hPa 0,0 l/m 0 min 0 min 0 W/m 6,4 km/h (2 Bft) 91,49 %
18.02.2019 23:00 7,8 C 6,7 C 3,9 C 74 % 1013,6 hPa 0,0 l/m 0 min 0 min 0 W/m 3,2 km/h (1 Bft) 95,74 %
18.02.2019 23:02 7,7 C 6,7 C 3,9 C 74 % 1013,6 hPa 0,0 l/m 0 min 0 min 0 W/m 3,2 km/h (1 Bft) 93,62 %
18.02.2019 23:04 7,7 C 6,7 C 3,9 C 74 % 1013,6 hPa 0,0 l/m 0 min 0 min 0 W/m 6,4 km/h (2 Bft) 95,74 %
18.02.2019 23:06 7,7 C 6,7 C 3,9 C 74 % 1013,6 hPa 0,0 l/m 0 min 0 min 0 W/m 3,2 km/h (1 Bft) 97,83 %
18.02.2019 23:08 7,7 C 6,7 C 3,9 C 74 % 1013,6 hPa 0,0 l/m 0 min 0 min 0 W/m 3,2 km/h (1 Bft) 95,74 %
18.02.2019 23:10 7,6 C 6,7 C 3,9 C 74 % 1013,5 hPa 0,0 l/m 0 min 0 min 0 W/m 6,4 km/h (2 Bft) 97,87 %
18.02.2019 23:12 7,6 C 6,7 C 4,4 C 74 % 1013,6 hPa 0,0 l/m 0 min 0 min 0 W/m 6,4 km/h (2 Bft) 100,00 %
18.02.2019 23:14 7,6 C 6,7 C 3,9 C 74 % 1013,6 hPa 0,0 l/m 0 min 0 min 0 W/m 3,2 km/h (1 Bft) 100,00 %
18.02.2019 23:16 7,5 C 6,7 C 4,4 C 74 % 1013,5 hPa 0,0 l/m 0 min 0 min 0 W/m 9,7 km/h (2 Bft) 100,00 %
18.02.2019 23:18 7,5 C 6,7 C 4,4 C 75 % 1013,6 hPa 0,0 l/m 0 min 0 min 0 W/m 6,4 km/h (2 Bft) 100,00 %
18.02.2019 23:20 7,5 C 6,7 C 4,4 C 75 % 1013,6 hPa 0,0 l/m 0 min 0 min 0 W/m 6,4 km/h (2 Bft) 100,00 %
18.02.2019 23:22 7,5 C 7,2 C 5,0 C 75 % 1013,6 hPa 0,0 l/m 0 min 0 min 0 W/m 6,4 km/h (2 Bft) 100,00 %
18.02.2019 23:24 7,4 C 7,2 C 5,6 C 75 % 1013,6 hPa 0,0 l/m 0 min 0 min 0 W/m 6,4 km/h (2 Bft) 100,00 %
18.02.2019 23:26 7,5 C 7,2 C 5,6 C 75 % 1013,6 hPa 0,0 l/m 0 min 0 min 0 W/m 9,7 km/h (2 Bft) 100,00 %
18.02.2019 23:28 7,5 C 7,8 C 6,1 C 75 % 1013,5 hPa 0,0 l/m 0 min 0 min 0 W/m 12,9 km/h (3 Bft) 100,00 %
18.02.2019 23:30 7,5 C 7,8 C 6,7 C 75 % 1013,5 hPa 0,0 l/m 0 min 0 min 0 W/m 12,9 km/h (3 Bft) 100,00 %
18.02.2019 23:32 7,6 C 7,8 C 6,7 C 75 % 1013,6 hPa 0,0 l/m 0 min 0 min 0 W/m 6,4 km/h (2 Bft) 100,00 %
18.02.2019 23:34 7,6 C 7,8 C 6,7 C 76 % 1013,5 hPa 0,0 l/m 0 min 0 min 0 W/m 9,7 km/h (2 Bft) 100,00 %
18.02.2019 23:36 7,6 C 7,8 C 6,7 C 76 % 1013,5 hPa 0,0 l/m 0 min 0 min 0 W/m 9,7 km/h (2 Bft) 100,00 %
18.02.2019 23:38 7,7 C 7,8 C 6,7 C 76 % 1013,7 hPa 0,0 l/m 0 min 0 min 0 W/m 12,9 km/h (3 Bft) 100,00 %
18.02.2019 23:40 7,7 C 7,8 C 6,7 C 75 % 1013,6 hPa 0,0 l/m 0 min 0 min 0 W/m 9,7 km/h (2 Bft) 100,00 %
18.02.2019 23:42 7,7 C 7,8 C 6,7 C 75 % 1013,6 hPa 0,0 l/m 0 min 0 min 0 W/m 12,9 km/h (3 Bft) 100,00 %
18.02.2019 23:44 7,8 C 7,8 C 6,7 C 75 % 1013,6 hPa 0,0 l/m 0 min 0 min 0 W/m 9,7 km/h (2 Bft) 100,00 %
18.02.2019 23:46 7,8 C 7,8 C 7,2 C 75 % 1013,7 hPa 0,0 l/m 0 min 0 min 0 W/m 9,7 km/h (2 Bft) 97,87 %
18.02.2019 23:48 7,9 C 7,8 C 6,7 C 75 % 1013,7 hPa 0,0 l/m 0 min 0 min 0 W/m 6,4 km/h (2 Bft) 100,00 %
18.02.2019 23:50 7,9 C 7,8 C 6,7 C 75 % 1013,6 hPa 0,0 l/m 0 min 0 min 0 W/m 9,7 km/h (2 Bft) 100,00 %
18.02.2019 23:52 7,9 C 7,8 C 7,2 C 75 % 1013,6 hPa 0,0 l/m 0 min 0 min 0 W/m 16,1 km/h (3 Bft) 97,83 %
18.02.2019 23:54 8,0 C 7,8 C 7,2 C 75 % 1013,6 hPa 0,0 l/m 0 min 0 min 0 W/m 6,4 km/h (2 Bft) 100,00 %
18.02.2019 23:56 8,1 C 7,8 C 7,2 C 75 % 1013,6 hPa 0,0 l/m 0 min 0 min 0 W/m 12,9 km/h (3 Bft) 100,00 %
18.02.2019 23:58 8,1 C 7,8 C 7,2 C 75 % 1013,6 hPa 0,0 l/m 0 min 0 min 0 W/m 12,9 km/h (3 Bft) 100,00 %
_ Min-Zeit 07:56 07:34 06:12 15:04 17:04 - - - - 19:42 05:22
Minimum _ 3,5 C 2,8 C 2,2 C 47 % 1012,8 hPa - - - - 0,0 km/h (0 Bft) 86,49 %
_ Max-Zeit 15:06 13:12 13:00 06:48 00:38 00:00 12:08 00:00 12:48 03:04 00:00
Maximum _ 16,7 C 21,7 C 21,1 C 84 % 1017,9 hPa 0,0 l/m 4 min 0 min 512 W/m 25,7 km/h
O-SO (4 Bft)
100,00 %
Durchschnitt _ 9,2 C 9,9 C 7,7 C 69 % 1015,5 hPa #0,0 l/m #7:04 h #0 min. 284 W/m 11,7 km/h (2 Bft) 97,25 %
© 2019 W. Hausmann